Observation data for Big Lake on 10/18/2020      Previous  Date       Current Mesonet Observations  Soil Data  Daily Summary Page  Observations in Plain Language
KBI1 180500Z 18011KT 20/13 A2996 RMK A01 T01990125  RH  063%=      5-min Rain = 0
KBI1 180501Z 18007KT 20/13 A2996 RMK A01 T01990125  RH  062%=      5-min Rain = 0
KBI1 180502Z 18010KT 20/13 A2996 RMK A01 T01990125  RH  062%=      5-min Rain = 0
KBI1 180503Z 18009KT 20/13 A2996 RMK A01 T02000125  RH  062%=      5-min Rain = 0
KBI1 180504Z 18007KT 20/13 A2996 RMK A01 T02000126  RH  062%=      5-min Rain = 0
KBI1 180505Z 18008KT 20/13 A2996 RMK A01 T02000125  RH  062%=      5-min Rain = 0
KBI1 180506Z 17008KT 20/13 A2996 RMK A01 T01990125  RH  062%=      5-min Rain = 0
KBI1 180507Z 18008G14KT 20/13 A2996 RMK A01 T01990125  RH  062%=      5-min Rain = 0
KBI1 180508Z 18009KT 20/13 A2996 RMK A01 T01990125  RH  063%=      5-min Rain = 0
KBI1 180509Z 17008KT 20/13 A2996 RMK A01 T01990126  RH  063%=      5-min Rain = 0
KBI1 180510Z 18007KT 20/13 A2996 RMK A01 T01990125  RH  063%=      5-min Rain = 0
KBI1 180511Z 17008KT 20/13 A2996 RMK A01 T01990125  RH  063%=      5-min Rain = 0
KBI1 180512Z 18007KT 20/13 A2996 RMK A01 T01990126  RH  063%=      5-min Rain = 0
KBI1 180513Z 17007KT 20/13 A2996 RMK A01 T01990125  RH  063%=      5-min Rain = 0
KBI1 180514Z 18008KT 20/13 A2996 RMK A01 T01980126  RH  063%=      5-min Rain = 0
KBI1 180515Z 18009KT 20/13 A2996 RMK A01 T01980126  RH  063%=      5-min Rain = 0
KBI1 180516Z 18007KT 20/13 A2996 RMK A01 T01990126  RH  063%=      5-min Rain = 0
KBI1 180517Z 18007KT 20/13 A2996 RMK A01 T01990126  RH  063%=      5-min Rain = 0
KBI1 180518Z 17007KT 20/13 A2996 RMK A01 T01990126  RH  063%=      5-min Rain = 0
KBI1 180519Z 17008KT 20/13 A2996 RMK A01 T01990126  RH  063%=      5-min Rain = 0
KBI1 180520Z 18010KT 20/13 A2996 RMK A01 T01990126  RH  063%=      5-min Rain = 0
KBI1 180521Z 18009KT 20/13 A2996 RMK A01 T01990126  RH  063%=      5-min Rain = 0
KBI1 180522Z 18007KT 20/13 A2996 RMK A01 T02000126  RH  063%=      5-min Rain = 0
KBI1 180523Z 18007KT 20/13 A2996 RMK A01 T01990126  RH  063%=      5-min Rain = 0
KBI1 180524Z 17008KT 20/13 A2996 RMK A01 T01980126  RH  063%=      5-min Rain = 0
KBI1 180525Z 18008KT 20/13 A2996 RMK A01 T01980126  RH  063%=      5-min Rain = 0
KBI1 180526Z 18008KT 20/13 A2996 RMK A01 T01980126  RH  063%=      5-min Rain = 0
KBI1 180527Z 18007KT 20/13 A2996 RMK A01 T01980126  RH  063%=      5-min Rain = 0
KBI1 180528Z 18007G12KT 20/13 A2996 RMK A01 T01980127  RH  063%=      5-min Rain = 0
KBI1 180529Z 18007KT 20/13 A2996 RMK A01 T01980127  RH  064%=      5-min Rain = 0
KBI1 180530Z 18007KT 20/13 A2996 RMK A01 T01980127  RH  064%=      5-min Rain = 0
KBI1 180531Z 18008KT 20/13 A2996 RMK A01 T01970127  RH  064%=      5-min Rain = 0
KBI1 180532Z 18006G11KT 20/13 A2996 RMK A01 T01970127  RH  064%=      5-min Rain = 0
KBI1 180533Z 18008KT 20/13 A2996 RMK A01 T01980127  RH  064%=      5-min Rain = 0
KBI1 180534Z 18008KT 20/13 A2996 RMK A01 T01980127  RH  064%=      5-min Rain = 0
KBI1 180535Z 18009KT 20/13 A2996 RMK A01 T01980127  RH  064%=      5-min Rain = 0
KBI1 180536Z 18008KT 20/13 A2996 RMK A01 T01980128  RH  064%=      5-min Rain = 0
KBI1 180537Z 18008KT 20/13 A2996 RMK A01 T01980128  RH  064%=      5-min Rain = 0
KBI1 180538Z 17007KT 20/13 A2996 RMK A01 T01980128  RH  064%=      5-min Rain = 0
KBI1 180539Z 18009KT 20/13 A2996 RMK A01 T01980128  RH  064%=      5-min Rain = 0
KBI1 180540Z 18007KT 20/13 A2996 RMK A01 T01980129  RH  064%=      5-min Rain = 0
KBI1 180541Z 18007KT 20/13 A2996 RMK A01 T01980128  RH  064%=      5-min Rain = 0
KBI1 180542Z 18007KT 20/13 A2996 RMK A01 T01970129  RH  065%=      5-min Rain = 0
KBI1 180543Z 19008KT 20/13 A2996 RMK A01 T01970129  RH  065%=      5-min Rain = 0
KBI1 180544Z 18008KT 20/13 A2996 RMK A01 T01970129  RH  065%=      5-min Rain = 0
KBI1 180545Z 18008KT 20/13 A2996 RMK A01 T01970129  RH  065%=      5-min Rain = 0
KBI1 180546Z 18008KT 20/13 A2996 RMK A01 T01980130  RH  065%=      5-min Rain = 0
KBI1 180547Z 19008KT 20/13 A2996 RMK A01 T01980130  RH  065%=      5-min Rain = 0
KBI1 180548Z 18009KT 20/13 A2996 RMK A01 T01980130  RH  065%=      5-min Rain = 0
KBI1 180549Z 17008KT 20/13 A2996 RMK A01 T01990131  RH  065%=      5-min Rain = 0
KBI1 180550Z 18008KT 20/13 A2996 RMK A01 T01990131  RH  065%=      5-min Rain = 0
KBI1 180551Z 19008KT 20/13 A2996 RMK A01 T01990131  RH  065%=      5-min Rain = 0
KBI1 180552Z 18007KT 20/13 A2996 RMK A01 T01990131  RH  065%=      5-min Rain = 0
KBI1 180553Z 18007KT 20/13 A2996 RMK A01 T01990131  RH  065%=      5-min Rain = 0
KBI1 180554Z 18007KT 20/13 A2996 RMK A01 T01990132  RH  065%=      5-min Rain = 0
KBI1 180555Z 17008KT 20/13 A2996 RMK A01 T01980132  RH  065%=      5-min Rain = 0
KBI1 180556Z 18007KT 20/13 A2996 RMK A01 T01980132  RH  066%=      5-min Rain = 0
KBI1 180557Z 18008KT 20/13 A2996 RMK A01 T01980132  RH  066%=      5-min Rain = 0
KBI1 180558Z 18009KT 20/13 A2996 RMK A01 T01980132  RH  066%=      5-min Rain = 0
KBI1 180559Z 18007KT 20/13 A2996 RMK A01 T01980133  RH  066%=      5-min Rain = 0
KBI1 180600Z 18007KT 20/13 A2996 RMK A01 T01980133  RH  066%=      5-min Rain = 0
KBI1 180601Z 18008KT 20/13 A2996 RMK A01 T01970132  RH  066%=      5-min Rain = 0
KBI1 180602Z 18009KT 20/13 A2996 RMK A01 T01960133  RH  067%=      5-min Rain = 0
KBI1 180603Z 19007KT 20/13 A2996 RMK A01 T01970134  RH  067%=      5-min Rain = 0
KBI1 180604Z 18009KT 20/13 A2996 RMK A01 T01970133  RH  067%=      5-min Rain = 0
KBI1 180605Z 18008KT 20/13 A2996 RMK A01 T01970134  RH  067%=      5-min Rain = 0
KBI1 180606Z 18010KT 20/13 A2996 RMK A01 T01970134  RH  067%=      5-min Rain = 0
KBI1 180607Z 19010KT 20/14 A2996 RMK A01 T01980135  RH  067%=      5-min Rain = 0
KBI1 180608Z 18008KT 20/14 A2996 RMK A01 T01990135  RH  067%=      5-min Rain = 0
KBI1 180609Z 18009KT 20/14 A2996 RMK A01 T01980135  RH  067%=      5-min Rain = 0
KBI1 180610Z 18010KT 20/14 A2996 RMK A01 T01980136  RH  067%=      5-min Rain = 0
KBI1 180611Z 18009KT 20/14 A2996 RMK A01 T01980136  RH  067%=      5-min Rain = 0
KBI1 180612Z 18008KT 20/14 A2996 RMK A01 T01980135  RH  067%=      5-min Rain = 0
KBI1 180613Z 18010KT 20/14 A2996 RMK A01 T01980136  RH  067%=      5-min Rain = 0
KBI1 180614Z 17007KT 20/14 A2996 RMK A01 T01980136  RH  067%=      5-min Rain = 0
KBI1 180615Z 18007KT 20/14 A2996 RMK A01 T01980136  RH  067%=      5-min Rain = 0
KBI1 180616Z 17010KT 20/14 A2996 RMK A01 T01970136  RH  068%=      5-min Rain = 0
KBI1 180617Z 18010KT 20/14 A2996 RMK A01 T01970137  RH  068%=      5-min Rain = 0
KBI1 180618Z 18008KT 20/14 A2996 RMK A01 T01970137  RH  068%=      5-min Rain = 0
KBI1 180619Z 18010KT 20/14 A2996 RMK A01 T01970137  RH  068%=      5-min Rain = 0
KBI1 180620Z 17009KT 20/14 A2996 RMK A01 T01970137  RH  068%=      5-min Rain = 0
KBI1 180621Z 18009KT 20/14 A2996 RMK A01 T01970137  RH  068%=      5-min Rain = 0
KBI1 180622Z 18009KT 20/14 A2996 RMK A01 T01970137  RH  068%=      5-min Rain = 0
KBI1 180623Z 18008KT 20/14 A2996 RMK A01 T01970138  RH  068%=      5-min Rain = 0
KBI1 180624Z 17008KT 20/14 A2996 RMK A01 T01970138  RH  068%=      5-min Rain = 0
KBI1 180625Z 18008KT 20/14 A2996 RMK A01 T01970138  RH  069%=      5-min Rain = 0
KBI1 180626Z 18008KT 20/14 A2996 RMK A01 T01970138  RH  069%=      5-min Rain = 0
KBI1 180627Z 18010KT 20/14 A2996 RMK A01 T01970138  RH  069%=      5-min Rain = 0
KBI1 180628Z 17010KT 20/14 A2996 RMK A01 T01970138  RH  069%=      5-min Rain = 0
KBI1 180629Z 18009KT 20/14 A2996 RMK A01 T01970139  RH  069%=      5-min Rain = 0
KBI1 180630Z 18010KT 20/14 A2996 RMK A01 T01980139  RH  069%=      5-min Rain = 0
KBI1 180631Z 18009KT 20/14 A2996 RMK A01 T01980139  RH  069%=      5-min Rain = 0
KBI1 180632Z 17008KT 20/14 A2996 RMK A01 T01980140  RH  069%=      5-min Rain = 0
KBI1 180633Z 18009KT 20/14 A2996 RMK A01 T01970139  RH  069%=      5-min Rain = 0
KBI1 180634Z 18009KT 20/14 A2996 RMK A01 T01970139  RH  069%=      5-min Rain = 0
KBI1 180635Z 18008KT 20/14 A2997 RMK A01 T01970140  RH  070%=      5-min Rain = 0
KBI1 180636Z 18008KT 20/14 A2996 RMK A01 T01970140  RH  070%=      5-min Rain = 0
KBI1 180637Z 18006KT 20/14 A2997 RMK A01 T01970140  RH  070%=      5-min Rain = 0
KBI1 180638Z 18007KT 20/14 A2997 RMK A01 T01960140  RH  070%=      5-min Rain = 0
KBI1 180639Z 18008KT 20/14 A2997 RMK A01 T01960140  RH  070%=      5-min Rain = 0
KBI1 180640Z 18009KT 20/14 A2997 RMK A01 T01950140  RH  070%=      5-min Rain = 0
KBI1 180641Z 18007KT 20/14 A2997 RMK A01 T01950140  RH  070%=      5-min Rain = 0
KBI1 180642Z 18008G13KT 20/14 A2997 RMK A01 T01950140  RH  070%=      5-min Rain = 0
KBI1 180643Z 18008KT 20/14 A2997 RMK A01 T01950140  RH  071%=      5-min Rain = 0
KBI1 180644Z 18007KT 19/14 A2997 RMK A01 T01940140  RH  071%=      5-min Rain = 0
KBI1 180645Z 18008KT 19/14 A2997 RMK A01 T01940140  RH  071%=      5-min Rain = 0
KBI1 180646Z 18009KT 19/14 A2997 RMK A01 T01940141  RH  071%=      5-min Rain = 0
KBI1 180647Z 18010KT 20/14 A2997 RMK A01 T01950141  RH  071%=      5-min Rain = 0
KBI1 180648Z 18009KT 20/14 A2997 RMK A01 T01950141  RH  071%=      5-min Rain = 0
KBI1 180649Z 18008KT 20/14 A2997 RMK A01 T01950141  RH  071%=      5-min Rain = 0
KBI1 180650Z 18011KT 20/14 A2997 RMK A01 T01950141  RH  071%=      5-min Rain = 0
KBI1 180651Z 18009KT 20/14 A2997 RMK A01 T01950142  RH  071%=      5-min Rain = 0
KBI1 180652Z 18009KT 20/14 A2997 RMK A01 T01950141  RH  071%=      5-min Rain = 0
KBI1 180653Z 17011KT 20/14 A2997 RMK A01 T01950141  RH  071%=      5-min Rain = 0
KBI1 180654Z 18010KT 20/14 A2996 RMK A01 T01950142  RH  071%=      5-min Rain = 0
KBI1 180655Z 17009KT 20/14 A2996 RMK A01 T01950142  RH  071%=      5-min Rain = 0
KBI1 180656Z 18009KT 20/14 A2996 RMK A01 T01950142  RH  071%=      5-min Rain = 0
KBI1 180657Z 18009KT 20/14 A2996 RMK A01 T01950142  RH  072%=      5-min Rain = 0
KBI1 180658Z 18011KT 20/14 A2996 RMK A01 T01950142  RH  072%=      5-min Rain = 0
KBI1 180659Z 18010KT 20/14 A2996 RMK A01 T01950142  RH  072%=      5-min Rain = 0
KBI1 180700Z 18010KT 20/14 A2996 RMK A01 T01950142  RH  072%=      5-min Rain = 0
KBI1 180701Z 18011KT 19/14 A2996 RMK A01 T01940142  RH  072%=      5-min Rain = 0
KBI1 180702Z 18009KT 20/14 A2996 RMK A01 T01950142  RH  072%=      5-min Rain = 0
KBI1 180703Z 18010KT 20/14 A2996 RMK A01 T01950143  RH  072%=      5-min Rain = 0
KBI1 180704Z 18011KT 19/14 A2996 RMK A01 T01940143  RH  072%=      5-min Rain = 0
KBI1 180705Z 18010KT 19/14 A2996 RMK A01 T01940142  RH  072%=      5-min Rain = 0
KBI1 180706Z 18009KT 19/14 A2996 RMK A01 T01940142  RH  072%=      5-min Rain = 0
KBI1 180707Z 18008KT 19/14 A2996 RMK A01 T01930142  RH  072%=      5-min Rain = 0
KBI1 180708Z 19010KT 19/14 A2996 RMK A01 T01930143  RH  073%=      5-min Rain = 0
KBI1 180709Z 18009KT 19/14 A2996 RMK A01 T01920142  RH  073%=      5-min Rain = 0
KBI1 180710Z 18010KT 19/14 A2996 RMK A01 T01920142  RH  073%=      5-min Rain = 0
KBI1 180711Z 18010KT 19/14 A2996 RMK A01 T01920143  RH  073%=      5-min Rain = 0
KBI1 180712Z 18011KT 19/14 A2996 RMK A01 T01930143  RH  073%=      5-min Rain = 0
KBI1 180713Z 18008KT 19/14 A2996 RMK A01 T01940143  RH  073%=      5-min Rain = 0
KBI1 180714Z 17011KT 19/14 A2996 RMK A01 T01930143  RH  073%=      5-min Rain = 0
KBI1 180715Z 18009KT 19/14 A2996 RMK A01 T01930143  RH  073%=      5-min Rain = 0
KBI1 180716Z 18009KT 19/14 A2996 RMK A01 T01920143  RH  073%=      5-min Rain = 0
KBI1 180717Z 18009KT 19/14 A2996 RMK A01 T01930143  RH  073%=      5-min Rain = 0
KBI1 180718Z 17010KT 19/14 A2996 RMK A01 T01920143  RH  073%=      5-min Rain = 0
KBI1 180719Z 18008KT 19/14 A2996 RMK A01 T01920144  RH  073%=      5-min Rain = 0
KBI1 180720Z 18010KT 19/14 A2996 RMK A01 T01920143  RH  073%=      5-min Rain = 0
KBI1 180721Z 18009KT 19/14 A2996 RMK A01 T01920144  RH  073%=      5-min Rain = 0
KBI1 180722Z 18007KT 19/14 A2996 RMK A01 T01920143  RH  073%=      5-min Rain = 0
KBI1 180723Z 18009KT 19/14 A2996 RMK A01 T01910143  RH  074%=      5-min Rain = 0
KBI1 180724Z 18011KT 19/14 A2996 RMK A01 T01910144  RH  074%=      5-min Rain = 0
KBI1 180725Z 18009KT 19/14 A2996 RMK A01 T01910144  RH  074%=      5-min Rain = 0
KBI1 180726Z 18010KT 19/14 A2996 RMK A01 T01910144  RH  074%=      5-min Rain = 0
KBI1 180727Z 18009KT 19/14 A2996 RMK A01 T01910144  RH  074%=      5-min Rain = 0
KBI1 180728Z 18009KT 19/14 A2996 RMK A01 T01910144  RH  074%=      5-min Rain = 0
KBI1 180729Z 18009KT 19/14 A2996 RMK A01 T01910144  RH  074%=      5-min Rain = 0
KBI1 180730Z 18009KT 19/14 A2996 RMK A01 T01900144  RH  074%=      5-min Rain = 0
KBI1 180731Z 18010KT 19/14 A2996 RMK A01 T01900144  RH  075%=      5-min Rain = 0
KBI1 180732Z 18010KT 19/14 A2996 RMK A01 T01900144  RH  075%=      5-min Rain = 0
KBI1 180733Z 18010KT 19/14 A2996 RMK A01 T01890144  RH  075%=      5-min Rain = 0
KBI1 180734Z 18011KT 19/14 A2996 RMK A01 T01900144  RH  075%=      5-min Rain = 0
KBI1 180735Z 18011KT 19/14 A2996 RMK A01 T01910144  RH  074%=      5-min Rain = 0
KBI1 180736Z 18011KT 19/15 A2996 RMK A01 T01910145  RH  075%=      5-min Rain = 0
KBI1 180737Z 18010KT 19/15 A2996 RMK A01 T01910145  RH  075%=      5-min Rain = 0
KBI1 180738Z 18010KT 19/14 A2996 RMK A01 T01910144  RH  074%=      5-min Rain = 0
KBI1 180739Z 18010KT 19/15 A2996 RMK A01 T01900145  RH  075%=      5-min Rain = 0
KBI1 180740Z 17010KT 19/15 A2996 RMK A01 T01900145  RH  075%=      5-min Rain = 0
KBI1 180741Z 18009KT 19/15 A2996 RMK A01 T01900145  RH  075%=      5-min Rain = 0
KBI1 180742Z 18013KT 19/15 A2996 RMK A01 T01890145  RH  075%=      5-min Rain = 0
KBI1 180743Z 18010KT 19/15 A2996 RMK A01 T01900145  RH  075%=      5-min Rain = 0
KBI1 180744Z 18009KT 19/15 A2996 RMK A01 T01900145  RH  075%=      5-min Rain = 0
KBI1 180745Z 18012KT 19/15 A2997 RMK A01 T01890145  RH  076%=      5-min Rain = 0
KBI1 180746Z 18010KT 19/15 A2997 RMK A01 T01890145  RH  076%=      5-min Rain = 0
KBI1 180747Z 18010KT 19/15 A2997 RMK A01 T01890146  RH  076%=      5-min Rain = 0
KBI1 180748Z 18010KT 19/15 A2997 RMK A01 T01890145  RH  076%=      5-min Rain = 0
KBI1 180749Z 18012KT 19/15 A2996 RMK A01 T01890146  RH  076%=      5-min Rain = 0
KBI1 180750Z 18012KT 19/15 A2997 RMK A01 T01890146  RH  076%=      5-min Rain = 0
KBI1 180751Z 17011KT 19/15 A2996 RMK A01 T01890146  RH  076%=      5-min Rain = 0
KBI1 180752Z 18011KT 19/15 A2996 RMK A01 T01880146  RH  076%=      5-min Rain = 0
KBI1 180753Z 18009KT 19/15 A2996 RMK A01 T01880146  RH  076%=      5-min Rain = 0
KBI1 180754Z 17011KT 19/15 A2996 RMK A01 T01880146  RH  076%=      5-min Rain = 0
KBI1 180755Z 18011KT 19/15 A2996 RMK A01 T01880146  RH  077%=      5-min Rain = 0
KBI1 180756Z 17011KT 19/15 A2996 RMK A01 T01880146  RH  077%=      5-min Rain = 0
KBI1 180757Z 18011KT 19/15 A2996 RMK A01 T01880147  RH  077%=      5-min Rain = 0
KBI1 180758Z 18013KT 19/15 A2996 RMK A01 T01880146  RH  077%=      5-min Rain = 0
KBI1 180759Z 18011G16KT 19/15 A2996 RMK A01 T01880147  RH  077%=      5-min Rain = 0
KBI1 180800Z 18011KT 19/15 A2996 RMK A01 T01880146  RH  077%=      5-min Rain = 0
KBI1 180801Z 18013KT 19/15 A2996 RMK A01 T01870147  RH  077%=      5-min Rain = 0
KBI1 180802Z 18011KT 19/15 A2996 RMK A01 T01870147  RH  077%=      5-min Rain = 0
KBI1 180803Z 17012KT 19/15 A2996 RMK A01 T01870146  RH  077%=      5-min Rain = 0
KBI1 180804Z 18011KT 19/15 A2996 RMK A01 T01870147  RH  077%=      5-min Rain = 0
KBI1 180805Z 18012KT 19/15 A2996 RMK A01 T01870147  RH  078%=      5-min Rain = 0
KBI1 180806Z 17009KT 19/15 A2996 RMK A01 T01870147  RH  078%=      5-min Rain = 0
KBI1 180807Z 18012KT 19/15 A2996 RMK A01 T01870147  RH  078%=      5-min Rain = 0
KBI1 180808Z 18011KT 19/15 A2996 RMK A01 T01870148  RH  078%=      5-min Rain = 0
KBI1 180809Z 17010KT 19/15 A2996 RMK A01 T01870147  RH  078%=      5-min Rain = 0
KBI1 180810Z 17010KT 19/15 A2996 RMK A01 T01870148  RH  078%=      5-min Rain = 0
KBI1 180811Z 18010KT 19/15 A2996 RMK A01 T01870148  RH  078%=      5-min Rain = 0
KBI1 180812Z 17010KT 19/15 A2996 RMK A01 T01860148  RH  078%=      5-min Rain = 0
KBI1 180813Z 17011KT 19/15 A2996 RMK A01 T01860148  RH  079%=      5-min Rain = 0
KBI1 180814Z 18011KT 19/15 A2996 RMK A01 T01860148  RH  079%=      5-min Rain = 0
KBI1 180815Z 18012KT 19/15 A2996 RMK A01 T01860148  RH  079%=      5-min Rain = 0
KBI1 180816Z 18010KT 19/15 A2996 RMK A01 T01860149  RH  079%=      5-min Rain = 0
KBI1 180817Z 18009KT 19/15 A2996 RMK A01 T01860149  RH  079%=      5-min Rain = 0
KBI1 180818Z 18012KT 19/15 A2996 RMK A01 T01860149  RH  079%=      5-min Rain = 0
KBI1 180819Z 18011KT 19/15 A2996 RMK A01 T01860149  RH  079%=      5-min Rain = 0
KBI1 180820Z 18010KT 19/15 A2996 RMK A01 T01860149  RH  079%=      5-min Rain = 0
KBI1 180821Z 18011KT 19/15 A2996 RMK A01 T01860149  RH  079%=      5-min Rain = 0
KBI1 180822Z 18010KT 19/15 A2996 RMK A01 T01850149  RH  079%=      5-min Rain = 0
KBI1 180823Z 18010KT 19/15 A2996 RMK A01 T01850149  RH  079%=      5-min Rain = 0
KBI1 180824Z 17010KT 19/15 A2996 RMK A01 T01850149  RH  080%=      5-min Rain = 0
KBI1 180825Z 18008KT 19/15 A2996 RMK A01 T01850149  RH  080%=      5-min Rain = 0
KBI1 180826Z 18009KT 18/15 A2996 RMK A01 T01840149  RH  080%=      5-min Rain = 0
KBI1 180827Z 17009KT 18/15 A2996 RMK A01 T01830149  RH  080%=      5-min Rain = 0
KBI1 180828Z 18009KT 18/15 A2996 RMK A01 T01830149  RH  081%=      5-min Rain = 0
KBI1 180829Z 19009KT 18/15 A2996 RMK A01 T01830149  RH  081%=      5-min Rain = 0
KBI1 180830Z 18009KT 18/15 A2996 RMK A01 T01830149  RH  081%=      5-min Rain = 0
KBI1 180831Z 18009KT 18/15 A2996 RMK A01 T01830149  RH  081%=      5-min Rain = 0
KBI1 180832Z 18010KT 18/15 A2996 RMK A01 T01830149  RH  081%=      5-min Rain = 0
KBI1 180833Z 18009KT 18/15 A2996 RMK A01 T01820149  RH  081%=      5-min Rain = 0
KBI1 180834Z 18010KT 18/15 A2996 RMK A01 T01820149  RH  081%=      5-min Rain = 0
KBI1 180835Z 18009KT 18/15 A2996 RMK A01 T01810149  RH  081%=      5-min Rain = 0
KBI1 180836Z 18012KT 18/15 A2996 RMK A01 T01810149  RH  082%=      5-min Rain = 0
KBI1 180837Z 18012KT 18/15 A2996 RMK A01 T01820150  RH  082%=      5-min Rain = 0
KBI1 180838Z 18012KT 18/15 A2996 RMK A01 T01820150  RH  082%=      5-min Rain = 0
KBI1 180839Z 18010KT 18/15 A2996 RMK A01 T01820150  RH  081%=      5-min Rain = 0
KBI1 180840Z 18011KT 18/15 A2996 RMK A01 T01820149  RH  081%=      5-min Rain = 0
KBI1 180841Z 18012KT 18/15 A2996 RMK A01 T01810150  RH  082%=      5-min Rain = 0
KBI1 180842Z 18013KT 18/15 A2996 RMK A01 T01820150  RH  082%=      5-min Rain = 0
KBI1 180843Z 19011KT 18/15 A2996 RMK A01 T01820150  RH  082%=      5-min Rain = 0
KBI1 180844Z 18011KT 18/15 A2996 RMK A01 T01820150  RH  081%=      5-min Rain = 0
KBI1 180845Z 18011KT 18/15 A2996 RMK A01 T01820150  RH  082%=      5-min Rain = 0
KBI1 180846Z 19013KT 18/15 A2996 RMK A01 T01810150  RH  082%=      5-min Rain = 0
KBI1 180847Z 18011KT 18/15 A2996 RMK A01 T01810151  RH  082%=      5-min Rain = 0
KBI1 180848Z 18010KT 18/15 A2996 RMK A01 T01810150  RH  082%=      5-min Rain = 0
KBI1 180849Z 18010KT 18/15 A2996 RMK A01 T01800150  RH  082%=      5-min Rain = 0
KBI1 180850Z 18012KT 18/15 A2996 RMK A01 T01800150  RH  083%=      5-min Rain = 0
KBI1 180851Z 18010KT 18/15 A2996 RMK A01 T01800150  RH  083%=      5-min Rain = 0
KBI1 180852Z 18011KT 18/15 A2996 RMK A01 T01800150  RH  083%=      5-min Rain = 0
KBI1 180853Z 18010KT 18/15 A2996 RMK A01 T01800150  RH  083%=      5-min Rain = 0
KBI1 180854Z 18011KT 18/15 A2996 RMK A01 T01800150  RH  083%=      5-min Rain = 0
KBI1 180855Z 18011KT 18/15 A2996 RMK A01 T01790150  RH  083%=      5-min Rain = 0
KBI1 180856Z 18011KT 18/15 A2996 RMK A01 T01790150  RH  083%=      5-min Rain = 0
KBI1 180857Z 18012KT 18/15 A2996 RMK A01 T01790150  RH  083%=      5-min Rain = 0
KBI1 180858Z 18010KT 18/15 A2996 RMK A01 T01790150  RH  083%=      5-min Rain = 0
KBI1 180859Z 18011KT 18/15 A2996 RMK A01 T01780150  RH  083%=      5-min Rain = 0
KBI1 180900Z 18012KT 18/15 A2996 RMK A01 T01780150  RH  084%=      5-min Rain = 0
KBI1 180901Z 18011KT 18/15 A2996 RMK A01 T01780150  RH  084%=      5-min Rain = 0
KBI1 180902Z 19012KT 18/15 A2996 RMK A01 T01780150  RH  084%=      5-min Rain = 0
KBI1 180903Z 18013KT 18/15 A2995 RMK A01 T01780150  RH  084%=      5-min Rain = 0
KBI1 180904Z 18012KT 18/15 A2995 RMK A01 T01780150  RH  084%=      5-min Rain = 0
KBI1 180905Z 19012KT 18/15 A2995 RMK A01 T01780150  RH  084%=      5-min Rain = 0
KBI1 180906Z 18012KT 18/15 A2995 RMK A01 T01780150  RH  084%=      5-min Rain = 0
KBI1 180907Z 18011KT 18/15 A2995 RMK A01 T01780150  RH  084%=      5-min Rain = 0
KBI1 180908Z 18013KT 18/15 A2995 RMK A01 T01770150  RH  084%=      5-min Rain = 0
KBI1 180909Z 18013KT 18/15 A2995 RMK A01 T01770150  RH  084%=      5-min Rain = 0
KBI1 180910Z 18013KT 18/15 A2995 RMK A01 T01770150  RH  085%=      5-min Rain = 0
KBI1 180911Z 18013KT 18/15 A2995 RMK A01 T01770150  RH  084%=      5-min Rain = 0
KBI1 180912Z 18011KT 18/15 A2995 RMK A01 T01770150  RH  084%=      5-min Rain = 0
KBI1 180913Z 18012KT 18/15 A2995 RMK A01 T01760150  RH  084%=      5-min Rain = 0
KBI1 180914Z 18012KT 18/15 A2995 RMK A01 T01760150  RH  085%=      5-min Rain = 0
KBI1 180915Z 18014KT 18/15 A2995 RMK A01 T01760150  RH  085%=      5-min Rain = 0
KBI1 180916Z 18012KT 18/15 A2995 RMK A01 T01760151  RH  085%=      5-min Rain = 0
KBI1 180917Z 18012KT 18/15 A2995 RMK A01 T01760151  RH  085%=      5-min Rain = 0
KBI1 180918Z 18012KT 18/15 A2995 RMK A01 T01760150  RH  085%=      5-min Rain = 0
KBI1 180919Z 18013KT 18/15 A2995 RMK A01 T01750150  RH  085%=      5-min Rain = 0
KBI1 180920Z 18013KT 18/15 A2995 RMK A01 T01750151  RH  085%=      5-min Rain = 0
KBI1 180921Z 18014KT 18/15 A2995 RMK A01 T01750150  RH  085%=      5-min Rain = 0
KBI1 180922Z 18012KT 18/15 A2995 RMK A01 T01750150  RH  085%=      5-min Rain = 0
KBI1 180923Z 18011KT 18/15 A2995 RMK A01 T01750150  RH  085%=      5-min Rain = 0
KBI1 180924Z 18013KT 17/15 A2995 RMK A01 T01740150  RH  086%=      5-min Rain = 0
KBI1 180925Z 18012KT 17/15 A2995 RMK A01 T01740151  RH  086%=      5-min Rain = 0
KBI1 180926Z 18014KT 17/15 A2995 RMK A01 T01740150  RH  086%=      5-min Rain = 0
KBI1 180927Z 18013KT 18/15 A2995 RMK A01 T01750151  RH  086%=      5-min Rain = 0
KBI1 180928Z 18012KT 18/15 A2995 RMK A01 T01750151  RH  086%=      5-min Rain = 0
KBI1 180929Z 18012KT 17/15 A2995 RMK A01 T01740150  RH  086%=      5-min Rain = 0
KBI1 180930Z 18011KT 17/15 A2995 RMK A01 T01740150  RH  086%=      5-min Rain = 0
KBI1 180931Z 18012KT 17/15 A2995 RMK A01 T01740150  RH  086%=      5-min Rain = 0
KBI1 180932Z 18012KT 17/15 A2995 RMK A01 T01740150  RH  086%=      5-min Rain = 0
KBI1 180933Z 18013KT 17/15 A2995 RMK A01 T01740151  RH  086%=      5-min Rain = 0
KBI1 180934Z 18012KT 17/15 A2995 RMK A01 T01730150  RH  086%=      5-min Rain = 0
KBI1 180935Z 18013KT 17/15 A2995 RMK A01 T01740151  RH  086%=      5-min Rain = 0
KBI1 180936Z 18012KT 17/15 A2995 RMK A01 T01730150  RH  086%=      5-min Rain = 0
KBI1 180937Z 18012KT 17/15 A2995 RMK A01 T01730150  RH  087%=      5-min Rain = 0
KBI1 180938Z 18013KT 17/15 A2995 RMK A01 T01730151  RH  087%=      5-min Rain = 0
KBI1 180939Z 18013KT 17/15 A2995 RMK A01 T01720151  RH  087%=      5-min Rain = 0
KBI1 180940Z 18012KT 17/15 A2995 RMK A01 T01730151  RH  087%=      5-min Rain = 0
KBI1 180941Z 18012G17KT 17/15 A2995 RMK A01 T01730151  RH  087%=      5-min Rain = 0
KBI1 180942Z 18012KT 17/15 A2995 RMK A01 T01720151  RH  087%=      5-min Rain = 0
KBI1 180943Z 18012KT 17/15 A2995 RMK A01 T01720151  RH  087%=      5-min Rain = 0
KBI1 180944Z 18012KT 17/15 A2995 RMK A01 T01730151  RH  087%=      5-min Rain = 0
KBI1 180945Z 18011KT 17/15 A2995 RMK A01 T01720151  RH  087%=      5-min Rain = 0
KBI1 180946Z 18011KT 17/15 A2995 RMK A01 T01720151  RH  087%=      5-min Rain = 0
KBI1 180947Z 18013KT 17/15 A2995 RMK A01 T01710150  RH  087%=      5-min Rain = 0
KBI1 180948Z 18011KT 17/15 A2995 RMK A01 T01710151  RH  088%=      5-min Rain = 0
KBI1 180949Z 18012KT 17/15 A2995 RMK A01 T01710151  RH  088%=      5-min Rain = 0
KBI1 180950Z 18011KT 17/15 A2995 RMK A01 T01710150  RH  088%=      5-min Rain = 0
KBI1 180951Z 18011KT 17/15 A2995 RMK A01 T01700151  RH  088%=      5-min Rain = 0
KBI1 180952Z 18012KT 17/15 A2995 RMK A01 T01700151  RH  088%=      5-min Rain = 0
KBI1 180953Z 18013KT 17/15 A2995 RMK A01 T01700151  RH  088%=      5-min Rain = 0
KBI1 180954Z 18013KT 17/15 A2995 RMK A01 T01700151  RH  088%=      5-min Rain = 0
KBI1 180955Z 18012KT 17/15 A2995 RMK A01 T01710151  RH  088%=      5-min Rain = 0
KBI1 180956Z 18011KT 17/15 A2995 RMK A01 T01710151  RH  088%=      5-min Rain = 0
KBI1 180957Z 18011KT 17/15 A2995 RMK A01 T01700151  RH  088%=      5-min Rain = 0
KBI1 180958Z 18012KT 17/15 A2995 RMK A01 T01700151  RH  089%=      5-min Rain = 0
KBI1 180959Z 18011KT 17/15 A2995 RMK A01 T01690151  RH  089%=      5-min Rain = 0
KBI1 181000Z 18011KT 17/15 A2995 RMK A01 T01690151  RH  089%=      5-min Rain = 0
KBI1 181001Z 18012KT 17/15 A2995 RMK A01 T01690151  RH  089%=      5-min Rain = 0
KBI1 181002Z 18011KT 17/15 A2995 RMK A01 T01700151  RH  089%=      5-min Rain = 0
KBI1 181003Z 18013KT 17/15 A2995 RMK A01 T01690151  RH  089%=      5-min Rain = 0
KBI1 181004Z 18012KT 17/15 A2995 RMK A01 T01690151  RH  089%=      5-min Rain = 0
KBI1 181005Z 18013KT 17/15 A2995 RMK A01 T01690152  RH  089%=      5-min Rain = 0
KBI1 181006Z 18012KT 17/15 A2995 RMK A01 T01690151  RH  089%=      5-min Rain = 0
KBI1 181007Z 18011KT 17/15 A2995 RMK A01 T01690151  RH  089%=      5-min Rain = 0
KBI1 181008Z 18012KT 17/15 A2995 RMK A01 T01690151  RH  089%=      5-min Rain = 0
KBI1 181009Z 18012KT 17/15 A2995 RMK A01 T01690151  RH  089%=      5-min Rain = 0
KBI1 181010Z 18013KT 17/15 A2995 RMK A01 T01690152  RH  090%=      5-min Rain = 0
KBI1 181011Z 18012KT 17/15 A2995 RMK A01 T01690152  RH  090%=      5-min Rain = 0
KBI1 181012Z 18013KT 17/15 A2995 RMK A01 T01690151  RH  090%=      5-min Rain = 0
KBI1 181013Z 18013KT 17/15 A2995 RMK A01 T01690152  RH  090%=      5-min Rain = 0
KBI1 181014Z 18011KT 17/15 A2995 RMK A01 T01690152  RH  090%=      5-min Rain = 0
KBI1 181015Z 18012KT 17/15 A2995 RMK A01 T01680151  RH  090%=      5-min Rain = 0
KBI1 181016Z 18012KT 17/15 A2995 RMK A01 T01680151  RH  090%=      5-min Rain = 0
KBI1 181017Z 18011KT 17/15 A2995 RMK A01 T01680151  RH  090%=      5-min Rain = 0
KBI1 181018Z 18012KT 17/15 A2995 RMK A01 T01680151  RH  090%=      5-min Rain = 0
KBI1 181019Z 18012KT 17/15 A2995 RMK A01 T01680151  RH  090%=      5-min Rain = 0
KBI1 181020Z 18012KT 17/15 A2995 RMK A01 T01670152  RH  090%=      5-min Rain = 0
KBI1 181021Z 18012KT 17/15 A2995 RMK A01 T01670152  RH  090%=      5-min Rain = 0
KBI1 181022Z 18012KT 17/15 A2995 RMK A01 T01670151  RH  090%=      5-min Rain = 0
KBI1 181023Z 18011KT 17/15 A2995 RMK A01 T01670152  RH  090%=      5-min Rain = 0
KBI1 181024Z 18013KT 17/15 A2995 RMK A01 T01670152  RH  091%=      5-min Rain = 0
KBI1 181025Z 18012KT 17/15 A2995 RMK A01 T01670152  RH  091%=      5-min Rain = 0
KBI1 181026Z 18010KT 17/15 A2995 RMK A01 T01670152  RH  091%=      5-min Rain = 0
KBI1 181027Z 18012KT 17/15 A2995 RMK A01 T01670152  RH  091%=      5-min Rain = 0
KBI1 181028Z 18011KT 17/15 A2995 RMK A01 T01670152  RH  091%=      5-min Rain = 0
KBI1 181029Z 18010KT 17/15 A2995 RMK A01 T01660151  RH  091%=      5-min Rain = 0
KBI1 181030Z 18011KT 17/15 A2995 RMK A01 T01660151  RH  091%=      5-min Rain = 0
KBI1 181031Z 18012KT 17/15 A2995 RMK A01 T01660152  RH  091%=      5-min Rain = 0
KBI1 181032Z 18011KT 17/15 A2995 RMK A01 T01660152  RH  091%=      5-min Rain = 0
KBI1 181033Z 18013KT 17/15 A2995 RMK A01 T01660152  RH  091%=      5-min Rain = 0
KBI1 181034Z 18011KT 17/15 A2995 RMK A01 T01660153  RH  092%=      5-min Rain = 0
KBI1 181035Z 18012KT 17/15 A2995 RMK A01 T01660152  RH  091%=      5-min Rain = 0
KBI1 181036Z 18011KT 17/15 A2995 RMK A01 T01660152  RH  092%=      5-min Rain = 0
KBI1 181037Z 18011KT 17/15 A2995 RMK A01 T01660152  RH  091%=      5-min Rain = 0
KBI1 181038Z 18013KT 17/15 A2995 RMK A01 T01660152  RH  092%=      5-min Rain = 0
KBI1 181039Z 18012G17KT 17/15 A2995 RMK A01 T01660152  RH  092%=      5-min Rain = 0
KBI1 181040Z 18014KT 17/15 A2995 RMK A01 T01660152  RH  092%=      5-min Rain = 0
KBI1 181041Z 18012KT 17/15 A2995 RMK A01 T01670153  RH  092%=      5-min Rain = 0
KBI1 181042Z 18012KT 17/15 A2995 RMK A01 T01670152  RH  091%=      5-min Rain = 0
KBI1 181043Z 18012KT 17/15 A2995 RMK A01 T01670152  RH  091%=      5-min Rain = 0
KBI1 181044Z 18013KT 17/15 A2995 RMK A01 T01660152  RH  092%=      5-min Rain = 0
KBI1 181045Z 18013KT 17/15 A2995 RMK A01 T01660153  RH  092%=      5-min Rain = 0
KBI1 181046Z 18011KT 17/15 A2995 RMK A01 T01660153  RH  092%=      5-min Rain = 0
KBI1 181047Z 18012KT 17/15 A2995 RMK A01 T01660152  RH  092%=      5-min Rain = 0
KBI1 181048Z 18012KT 17/15 A2995 RMK A01 T01660152  RH  092%=      5-min Rain = 0
KBI1 181049Z 18012KT 17/15 A2995 RMK A01 T01660152  RH  092%=      5-min Rain = 0
KBI1 181050Z 18011KT 17/15 A2995 RMK A01 T01660153  RH  092%=      5-min Rain = 0
KBI1 181051Z 18012KT 17/15 A2995 RMK A01 T01660153  RH  092%=      5-min Rain = 0
KBI1 181052Z 19013KT 17/15 A2995 RMK A01 T01660153  RH  092%=      5-min Rain = 0
KBI1 181053Z 18010KT 17/15 A2995 RMK A01 T01660153  RH  092%=      5-min Rain = 0
KBI1 181054Z 18011KT 17/15 A2995 RMK A01 T01660153  RH  092%=      5-min Rain = 0
KBI1 181055Z 18011G16KT 17/15 A2995 RMK A01 T01650153  RH  092%=      5-min Rain = 0
KBI1 181056Z 19012KT 17/15 A2995 RMK A01 T01650153  RH  092%=      5-min Rain = 0
KBI1 181057Z 18012KT 17/15 A2995 RMK A01 T01660153  RH  092%=      5-min Rain = 0
KBI1 181058Z 19012KT 17/15 A2995 RMK A01 T01650153  RH  092%=      5-min Rain = 0
KBI1 181059Z 18013KT 17/15 A2995 RMK A01 T01650153  RH  093%=      5-min Rain = 0
KBI1 181100Z 18012KT 17/15 A2995 RMK A01 T01650153  RH  092%=      5-min Rain = 0
KBI1 181101Z 18012KT 17/15 A2995 RMK A01 T01650153  RH  092%=      5-min Rain = 0
KBI1 181102Z 18011KT 17/15 A2995 RMK A01 T01650153  RH  092%=      5-min Rain = 0
KBI1 181103Z 19011KT 17/15 A2995 RMK A01 T01650152  RH  092%=      5-min Rain = 0
KBI1 181104Z 18011KT 16/15 A2995 RMK A01 T01640152  RH  092%=      5-min Rain = 0
KBI1 181105Z 18011KT 16/15 A2995 RMK A01 T01640152  RH  093%=      5-min Rain = 0
KBI1 181106Z 19012KT 16/15 A2995 RMK A01 T01640152  RH  093%=      5-min Rain = 0
KBI1 181107Z 18011KT 16/15 A2995 RMK A01 T01640153  RH  093%=      5-min Rain = 0
KBI1 181108Z 18011KT 16/15 A2995 RMK A01 T01640152  RH  093%=      5-min Rain = 0
KBI1 181109Z 18011KT 16/15 A2995 RMK A01 T01640152  RH  093%=      5-min Rain = 0
KBI1 181110Z 19011KT 16/15 A2995 RMK A01 T01630152  RH  093%=      5-min Rain = 0
KBI1 181111Z 19011KT 16/15 A2995 RMK A01 T01630152  RH  093%=      5-min Rain = 0
KBI1 181112Z 19012KT 16/15 A2995 RMK A01 T01630152  RH  093%=      5-min Rain = 0
KBI1 181113Z 19012KT 16/15 A2995 RMK A01 T01630152  RH  094%=      5-min Rain = 0
KBI1 181114Z 19012KT 16/15 A2995 RMK A01 T01630152  RH  094%=      5-min Rain = 0
KBI1 181115Z 18010KT 16/15 A2995 RMK A01 T01630152  RH  094%=      5-min Rain = 0
KBI1 181116Z 19011KT 16/15 A2995 RMK A01 T01620152  RH  094%=      5-min Rain = 0
KBI1 181117Z 19011KT 16/15 A2995 RMK A01 T01620152  RH  094%=      5-min Rain = 0
KBI1 181118Z 19010KT 16/15 A2995 RMK A01 T01620152  RH  094%=      5-min Rain = 0
KBI1 181119Z 19010G15KT 16/15 A2995 RMK A01 T01630152  RH  094%=      5-min Rain = 0
KBI1 181120Z 19012KT 16/15 A2995 RMK A01 T01620152  RH  094%=      5-min Rain = 0
KBI1 181121Z 18012KT 16/15 A2995 RMK A01 T01620153  RH  094%=      5-min Rain = 0
KBI1 181122Z 19011KT 16/15 A2995 RMK A01 T01620152  RH  094%=      5-min Rain = 0
KBI1 181123Z 19009G14KT 16/15 A2995 RMK A01 T01620152  RH  094%=      5-min Rain = 0
KBI1 181124Z 19011KT 16/15 A2995 RMK A01 T01610152  RH  094%=      5-min Rain = 0
KBI1 181125Z 19011KT 16/15 A2995 RMK A01 T01610152  RH  094%=      5-min Rain = 0
KBI1 181126Z 19011KT 16/15 A2995 RMK A01 T01610152  RH  094%=      5-min Rain = 0
KBI1 181127Z 19011KT 16/15 A2995 RMK A01 T01610152  RH  094%=      5-min Rain = 0
KBI1 181128Z 19011KT 16/15 A2995 RMK A01 T01610152  RH  094%=      5-min Rain = 0
KBI1 181129Z 19011KT 16/15 A2995 RMK A01 T01610152  RH  094%=      5-min Rain = 0
KBI1 181130Z 19012KT 16/15 A2995 RMK A01 T01610152  RH  094%=      5-min Rain = 0
KBI1 181131Z 19011KT 16/15 A2995 RMK A01 T01610152  RH  095%=      5-min Rain = 0
KBI1 181132Z 19010KT 16/15 A2995 RMK A01 T01610152  RH  094%=      5-min Rain = 0
KBI1 181133Z 19012KT 16/15 A2995 RMK A01 T01610152  RH  094%=      5-min Rain = 0
KBI1 181134Z 19010KT 16/15 A2995 RMK A01 T01610152  RH  094%=      5-min Rain = 0
KBI1 181135Z 19010KT 16/15 A2995 RMK A01 T01610152  RH  094%=      5-min Rain = 0
KBI1 181136Z 19012KT 16/15 A2995 RMK A01 T01610152  RH  095%=      5-min Rain = 0
KBI1 181137Z 19012KT 16/15 A2995 RMK A01 T01610152  RH  095%=      5-min Rain = 0
KBI1 181138Z 19011KT 16/15 A2995 RMK A01 T01610152  RH  095%=      5-min Rain = 0
KBI1 181139Z 19010KT 16/15 A2995 RMK A01 T01610152  RH  095%=      5-min Rain = 0
KBI1 181140Z 18012KT 16/15 A2995 RMK A01 T01600152  RH  095%=      5-min Rain = 0
KBI1 181141Z 18012KT 16/15 A2995 RMK A01 T01600152  RH  095%=      5-min Rain = 0
KBI1 181142Z 19010G15KT 16/15 A2995 RMK A01 T01600152  RH  095%=      5-min Rain = 0
KBI1 181143Z 18011KT 16/15 A2995 RMK A01 T01600152  RH  095%=      5-min Rain = 0
KBI1 181144Z 18011KT 16/15 A2995 RMK A01 T01600152  RH  095%=      5-min Rain = 0
KBI1 181145Z 19010KT 16/15 A2995 RMK A01 T01600152  RH  095%=      5-min Rain = 0
KBI1 181146Z 19009KT 16/15 A2995 RMK A01 T01600152  RH  095%=      5-min Rain = 0
KBI1 181147Z 18012KT 16/15 A2995 RMK A01 T01600152  RH  095%=      5-min Rain = 0
KBI1 181148Z 18012KT 16/15 A2995 RMK A01 T01600152  RH  095%=      5-min Rain = 0
KBI1 181149Z 18012KT 16/15 A2996 RMK A01 T01600153  RH  096%=      5-min Rain = 0
KBI1 181150Z 18011KT 16/15 A2996 RMK A01 T01600153  RH  095%=      5-min Rain = 0
KBI1 181151Z 18012KT 16/15 A2996 RMK A01 T01600153  RH  095%=      5-min Rain = 0
KBI1 181152Z 18012KT 16/15 A2996 RMK A01 T01600152  RH  095%=      5-min Rain = 0
KBI1 181153Z 18011KT 16/15 A2996 RMK A01 T01600152  RH  095%=      5-min Rain = 0
KBI1 181154Z 18012KT 16/15 A2996 RMK A01 T01600153  RH  096%=      5-min Rain = 0
KBI1 181155Z 18012KT 16/15 A2996 RMK A01 T01600153  RH  096%=      5-min Rain = 0
KBI1 181156Z 18010KT 16/15 A2996 RMK A01 T01600153  RH  095%=      5-min Rain = 0
KBI1 181157Z 18009KT 16/15 A2996 RMK A01 T01600153  RH  095%=      5-min Rain = 0
KBI1 181158Z 19010KT 16/15 A2996 RMK A01 T01610153  RH  095%=      5-min Rain = 0
KBI1 181159Z 19010KT 16/15 A2996 RMK A01 T01600153  RH  095%=      5-min Rain = 0
KBI1 181200Z 19011KT 16/15 A2996 RMK A01 T01600153  RH  096%=      5-min Rain = 0
KBI1 181201Z 19009KT 16/15 A2996 RMK A01 T01600153  RH  096%=      5-min Rain = 0
KBI1 181202Z 19010KT 16/15 A2996 RMK A01 T01600153  RH  096%=      5-min Rain = 0
KBI1 181203Z 20009KT 16/15 A2996 RMK A01 T01600153  RH  096%=      5-min Rain = 0
KBI1 181204Z 19007KT 16/15 A2996 RMK A01 T01600153  RH  096%=      5-min Rain = 0
KBI1 181205Z 19009KT 16/15 A2996 RMK A01 T01600153  RH  095%=      5-min Rain = 0
KBI1 181206Z 18009KT 16/15 A2996 RMK A01 T01600153  RH  096%=      5-min Rain = 0
KBI1 181207Z 19009KT 16/15 A2996 RMK A01 T01600153  RH  096%=      5-min Rain = 0
KBI1 181208Z 19010KT 16/15 A2996 RMK A01 T01600153  RH  096%=      5-min Rain = 0
KBI1 181209Z 18010KT 16/15 A2996 RMK A01 T01600153  RH  096%=      5-min Rain = 0
KBI1 181210Z 18010KT 16/15 A2996 RMK A01 T01600153  RH  096%=      5-min Rain = 0
KBI1 181211Z 19010KT 16/15 A2996 RMK A01 T01600153  RH  096%=      5-min Rain = 0
KBI1 181212Z 19010KT 16/15 A2996 RMK A01 T01600154  RH  096%=      5-min Rain = 0
KBI1 181213Z 19008KT 16/15 A2997 RMK A01 T01600153  RH  096%=      5-min Rain = 0
KBI1 181214Z 19008KT 16/15 A2997 RMK A01 T01600153  RH  096%=      5-min Rain = 0
KBI1 181215Z 19009KT 16/15 A2997 RMK A01 T01600154  RH  096%=      5-min Rain = 0
KBI1 181216Z 19008KT 16/15 A2997 RMK A01 T01600153  RH  096%=      5-min Rain = 0
KBI1 181217Z 19007KT 16/15 A2997 RMK A01 T01600153  RH  096%=      5-min Rain = 0
KBI1 181218Z 19007KT 16/15 A2997 RMK A01 T01600153  RH  096%=      5-min Rain = 0
KBI1 181219Z 19008KT 16/15 A2997 RMK A01 T01590153  RH  096%=      5-min Rain = 0
KBI1 181220Z 20006KT 16/15 A2997 RMK A01 T01590153  RH  096%=      5-min Rain = 0
KBI1 181221Z 20007KT 16/15 A2997 RMK A01 T01590153  RH  096%=      5-min Rain = 0
KBI1 181222Z 19007KT 16/15 A2997 RMK A01 T01590153  RH  096%=      5-min Rain = 0
KBI1 181223Z 19007KT 16/15 A2997 RMK A01 T01590153  RH  096%=      5-min Rain = 0
KBI1 181224Z 19006KT 16/15 A2997 RMK A01 T01590153  RH  096%=      5-min Rain = 0
KBI1 181225Z 20007KT 16/15 A2997 RMK A01 T01580153  RH  096%=      5-min Rain = 0
KBI1 181226Z 20007KT 16/15 A2997 RMK A01 T01580153  RH  097%=      5-min Rain = 0
KBI1 181227Z 19007KT 16/15 A2997 RMK A01 T01580153  RH  096%=      5-min Rain = 0
KBI1 181228Z 19008KT 16/15 A2997 RMK A01 T01580153  RH  097%=      5-min Rain = 0
KBI1 181229Z 19009KT 16/15 A2997 RMK A01 T01580153  RH  097%=      5-min Rain = 0
KBI1 181230Z 19008KT 16/15 A2997 RMK A01 T01580153  RH  097%=      5-min Rain = 0
KBI1 181231Z 19008KT 16/15 A2997 RMK A01 T01580153  RH  097%=      5-min Rain = 0
KBI1 181232Z 19009KT 16/15 A2997 RMK A01 T01580153  RH  097%=      5-min Rain = 0
KBI1 181233Z 19009KT 16/15 A2997 RMK A01 T01580153  RH  097%=      5-min Rain = 0
KBI1 181234Z 19008G13KT 16/15 A2997 RMK A01 T01590154  RH  097%=      5-min Rain = 0
KBI1 181235Z 18010KT 16/15 A2997 RMK A01 T01590154  RH  097%=      5-min Rain = 0
KBI1 181236Z 19010KT 16/15 A2997 RMK A01 T01590154  RH  097%=      5-min Rain = 0
KBI1 181237Z 18010KT 16/15 A2997 RMK A01 T01590154  RH  097%=      5-min Rain = 0
KBI1 181238Z 18010KT 16/15 A2997 RMK A01 T01590154  RH  097%=      5-min Rain = 0
KBI1 181239Z 18009KT 16/15 A2997 RMK A01 T01590154  RH  097%=      5-min Rain = 0
KBI1 181240Z 19011KT 16/15 A2997 RMK A01 T01590154  RH  097%=      5-min Rain = 0
KBI1 181241Z 19010KT 16/15 A2997 RMK A01 T01580154  RH  097%=      5-min Rain = 0
KBI1 181242Z 19008KT 16/15 A2997 RMK A01 T01580153  RH  097%=      5-min Rain = 0
KBI1 181243Z 19009KT 16/15 A2997 RMK A01 T01580153  RH  097%=      5-min Rain = 0
KBI1 181244Z 19011KT 16/15 A2997 RMK A01 T01570153  RH  097%=      5-min Rain = 0
KBI1 181245Z 19012KT 16/15 A2997 RMK A01 T01580154  RH  097%=      5-min Rain = 0
KBI1 181246Z 18012KT 16/15 A2997 RMK A01 T01590154  RH  097%=      5-min Rain = 0
KBI1 181247Z 18012KT 16/15 A2997 RMK A01 T01590154  RH  097%=      5-min Rain = 0
KBI1 181248Z 18011KT 16/15 A2997 RMK A01 T01590154  RH  097%=      5-min Rain = 0
KBI1 181249Z 18012KT 16/15 A2997 RMK A01 T01590154  RH  097%=      5-min Rain = 0
KBI1 181250Z 18012KT 16/15 A2997 RMK A01 T01590154  RH  097%=      5-min Rain = 0
KBI1 181251Z 18012KT 16/15 A2997 RMK A01 T01590154  RH  097%=      5-min Rain = 0
KBI1 181252Z 18011KT 16/15 A2997 RMK A01 T01590154  RH  097%=      5-min Rain = 0
KBI1 181253Z 19011KT 16/15 A2997 RMK A01 T01590154  RH  097%=      5-min Rain = 0
KBI1 181254Z 19010KT 16/15 A2997 RMK A01 T01590154  RH  097%=      5-min Rain = 0
KBI1 181255Z 19009KT 16/15 A2997 RMK A01 T01580153  RH  097%=      5-min Rain = 0
KBI1 181256Z 19010KT 16/15 A2997 RMK A01 T01580154  RH  097%=      5-min Rain = 0
KBI1 181257Z 19010KT 16/15 A2997 RMK A01 T01580153  RH  097%=      5-min Rain = 0
KBI1 181258Z 19009KT 16/15 A2997 RMK A01 T01580153  RH  097%=      5-min Rain = 0
KBI1 181259Z 19010KT 16/15 A2997 RMK A01 T01570153  RH  097%=      5-min Rain = 0
KBI1 181300Z 19009KT 16/15 A2997 RMK A01 T01580154  RH  097%=      5-min Rain = 0
KBI1 181301Z 19009KT 16/15 A2997 RMK A01 T01570153  RH  097%=      5-min Rain = 0
KBI1 181302Z 19010KT 16/15 A2997 RMK A01 T01570153  RH  097%=      5-min Rain = 0
KBI1 181303Z 18012KT 16/15 A2997 RMK A01 T01570154  RH  098%=      5-min Rain = 0
KBI1 181304Z 19011KT 16/16 A2997 RMK A01 T01580155  RH  098%=      5-min Rain = 0
KBI1 181305Z 19013KT 16/16 A2997 RMK A01 T01590156  RH  098%=      5-min Rain = 0
KBI1 181306Z 19011KT 16/16 A2997 RMK A01 T01590156  RH  098%=      5-min Rain = 0
KBI1 181307Z 19012KT 16/16 A2997 RMK A01 T01590156  RH  098%=      5-min Rain = 0
KBI1 181308Z 19011KT 16/16 A2998 RMK A01 T01600156  RH  098%=      5-min Rain = 0
KBI1 181309Z 19010KT 16/16 A2998 RMK A01 T01600157  RH  098%=      5-min Rain = 0
KBI1 181310Z 20012KT 16/16 A2998 RMK A01 T01600156  RH  098%=      5-min Rain = 0
KBI1 181311Z 19010KT 16/16 A2998 RMK A01 T01610157  RH  098%=      5-min Rain = 0
KBI1 181312Z 19011G16KT 16/16 A2998 RMK A01 T01610157  RH  098%=      5-min Rain = 0
KBI1 181313Z 19011G16KT 16/16 A2998 RMK A01 T01610157  RH  098%=      5-min Rain = 0
KBI1 181314Z 19013KT 16/16 A2998 RMK A01 T01610157  RH  098%=      5-min Rain = 0
KBI1 181315Z 19011KT 16/16 A2998 RMK A01 T01610158  RH  098%=      5-min Rain = 0
KBI1 181316Z 19014KT 16/16 A2998 RMK A01 T01620158  RH  098%=      5-min Rain = 0
KBI1 181317Z 18013KT 16/16 A2998 RMK A01 T01620158  RH  098%=      5-min Rain = 0
KBI1 181318Z 18014KT 16/16 A2998 RMK A01 T01620158  RH  097%=      5-min Rain = 0
KBI1 181319Z 19016KT 16/16 A2998 RMK A01 T01620158  RH  097%=      5-min Rain = 0
KBI1 181320Z 18017KT 16/16 A2998 RMK A01 T01620158  RH  097%=      5-min Rain = 0
KBI1 181321Z 18015KT 16/16 A2998 RMK A01 T01630159  RH  097%=      5-min Rain = 0
KBI1 181322Z 18015KT 16/16 A2998 RMK A01 T01630159  RH  097%=      5-min Rain = 0
KBI1 181323Z 18014KT 16/16 A2998 RMK A01 T01630159  RH  097%=      5-min Rain = 0
KBI1 181324Z 18015KT 16/16 A2998 RMK A01 T01630158  RH  097%=      5-min Rain = 0
KBI1 181325Z 18017KT 16/16 A2998 RMK A01 T01630159  RH  097%=      5-min Rain = 0
KBI1 181326Z 18014G19KT 16/16 A2998 RMK A01 T01630159  RH  097%=      5-min Rain = 0
KBI1 181327Z 18015KT 16/16 A2998 RMK A01 T01630158  RH  097%=      5-min Rain = 0
KBI1 181328Z 19014KT 16/16 A2998 RMK A01 T01640159  RH  097%=      5-min Rain = 0
KBI1 181329Z 19016G21KT 16/16 A2998 RMK A01 T01630159  RH  097%=      5-min Rain = 0
KBI1 181330Z 18013KT 16/16 A2998 RMK A01 T01630159  RH  097%=      5-min Rain = 0
KBI1 181331Z 19017KT 16/16 A2998 RMK A01 T01640159  RH  097%=      5-min Rain = 0
KBI1 181332Z 19014KT 16/16 A2998 RMK A01 T01630158  RH  097%=      5-min Rain = 0
KBI1 181333Z 19016G21KT 16/16 A2998 RMK A01 T01640159  RH  097%=      5-min Rain = 0
KBI1 181334Z 19013KT 16/16 A2998 RMK A01 T01640158  RH  097%=      5-min Rain = 0
KBI1 181335Z 19012KT 16/16 A2998 RMK A01 T01640158  RH  097%=      5-min Rain = 0
KBI1 181336Z 20012KT 16/16 A2998 RMK A01 T01640158  RH  097%=      5-min Rain = 0
KBI1 181337Z 20011KT 16/16 A2998 RMK A01 T01640159  RH  097%=      5-min Rain = 0
KBI1 181338Z 19014KT 16/16 A2998 RMK A01 T01640159  RH  097%=      5-min Rain = 0
KBI1 181339Z 19012KT 16/16 A2998 RMK A01 T01640158  RH  096%=      5-min Rain = 0
KBI1 181340Z 19011KT 16/16 A2998 RMK A01 T01640158  RH  096%=      5-min Rain = 0
KBI1 181341Z 19012KT 16/16 A2998 RMK A01 T01640158  RH  096%=      5-min Rain = 0
KBI1 181342Z 18016KT 16/16 A2998 RMK A01 T01640158  RH  096%=      5-min Rain = 0
KBI1 181343Z 18016KT 16/16 A2998 RMK A01 T01640158  RH  096%=      5-min Rain = 0
KBI1 181344Z 19015KT 16/16 A2998 RMK A01 T01640158  RH  096%=      5-min Rain = 0
KBI1 181345Z 19015KT 16/16 A2998 RMK A01 T01640158  RH  096%=      5-min Rain = 0
KBI1 181346Z 18015KT 17/16 A2998 RMK A01 T01650159  RH  096%=      5-min Rain = 0
KBI1 181347Z 19015G20KT 17/16 A2998 RMK A01 T01650158  RH  096%=      5-min Rain = 0
KBI1 181348Z 19015KT 16/16 A2998 RMK A01 T01640158  RH  096%=      5-min Rain = 0
KBI1 181349Z 18014KT 16/16 A2998 RMK A01 T01640158  RH  096%=      5-min Rain = 0
KBI1 181350Z 18013KT 16/16 A2998 RMK A01 T01640157  RH  096%=      5-min Rain = 0
KBI1 181351Z 18014KT 17/16 A2998 RMK A01 T01650158  RH  096%=      5-min Rain = 0
KBI1 181352Z 19014G19KT 17/16 A2998 RMK A01 T01650158  RH  096%=      5-min Rain = 0
KBI1 181353Z 19014KT 17/16 A2998 RMK A01 T01650158  RH  096%=      5-min Rain = 0
KBI1 181354Z 19015KT 17/16 A2998 RMK A01 T01650158  RH  095%=      5-min Rain = 0
KBI1 181355Z 19018KT 17/16 A2998 RMK A01 T01650157  RH  095%=      5-min Rain = 0
KBI1 181356Z 19017G22KT 17/16 A2998 RMK A01 T01650157  RH  095%=      5-min Rain = 0
KBI1 181357Z 18016KT 17/16 A2998 RMK A01 T01650157  RH  095%=      5-min Rain = 0
KBI1 181358Z 18015KT 17/16 A2999 RMK A01 T01650157  RH  095%=      5-min Rain = 0
KBI1 181359Z 19016KT 17/16 A2999 RMK A01 T01650157  RH  095%=      5-min Rain = 0
KBI1 181400Z 19017KT 17/16 A2999 RMK A01 T01650157  RH  095%=      5-min Rain = 0
KBI1 181401Z 19015G20KT 17/16 A2999 RMK A01 T01650157  RH  095%=      5-min Rain = 0
KBI1 181402Z 19013KT 17/16 A2999 RMK A01 T01650157  RH  095%=      5-min Rain = 0
KBI1 181403Z 19015KT 17/16 A2999 RMK A01 T01660157  RH  095%=      5-min Rain = 0
KBI1 181404Z 18016KT 17/16 A2999 RMK A01 T01660157  RH  094%=      5-min Rain = 0
KBI1 181405Z 18016KT 17/16 A2999 RMK A01 T01660156  RH  094%=      5-min Rain = 0
KBI1 181406Z 19015KT 17/16 A2999 RMK A01 T01660156  RH  094%=      5-min Rain = 0
KBI1 181407Z 18013KT 17/16 A2999 RMK A01 T01660157  RH  094%=      5-min Rain = 0
KBI1 181408Z 19012KT 17/16 A2999 RMK A01 T01670157  RH  094%=      5-min Rain = 0
KBI1 181409Z 18015KT 17/16 A2999 RMK A01 T01670157  RH  094%=      5-min Rain = 0
KBI1 181410Z 18015KT 17/16 A2999 RMK A01 T01670157  RH  094%=      5-min Rain = 0
KBI1 181411Z 19013KT 17/16 A2999 RMK A01 T01670157  RH  093%=      5-min Rain = 0
KBI1 181412Z 18010KT 17/16 A2999 RMK A01 T01680157  RH  093%=      5-min Rain = 0
KBI1 181413Z 18011KT 17/16 A2999 RMK A01 T01690158  RH  093%=      5-min Rain = 0
KBI1 181414Z 19013KT 17/16 A2999 RMK A01 T01700157  RH  093%=      5-min Rain = 0
KBI1 181415Z 18013KT 17/16 A2999 RMK A01 T01700157  RH  092%=      5-min Rain = 0
KBI1 181416Z 18013KT 17/16 A30 RMK A01 T01700157  RH  092%=      5-min Rain = 0
KBI1 181417Z 18015KT 17/16 A30 RMK A01 T01700156  RH  091%=      5-min Rain = 0
KBI1 181418Z 19013KT 17/16 A30 RMK A01 T01700156  RH  091%=      5-min Rain = 0
KBI1 181419Z 19013KT 17/16 A30 RMK A01 T01700156  RH  091%=      5-min Rain = 0
KBI1 181420Z 19012KT 17/16 A30 RMK A01 T01700156  RH  091%=      5-min Rain = 0
KBI1 181421Z 19013KT 17/16 A30 RMK A01 T01700156  RH  091%=      5-min Rain = 0
KBI1 181422Z 19012KT 17/16 A30 RMK A01 T01710157  RH  091%=      5-min Rain = 0
KBI1 181423Z 18013KT 17/16 A30 RMK A01 T01720156  RH  091%=      5-min Rain = 0
KBI1 181424Z 18011KT 17/16 A30 RMK A01 T01720156  RH  090%=      5-min Rain = 0
KBI1 181425Z 18011KT 17/16 A30 RMK A01 T01720156  RH  090%=      5-min Rain = 0
KBI1 181426Z 18009KT 17/16 A30 RMK A01 T01730156  RH  090%=      5-min Rain = 0
KBI1 181427Z 18011KT 17/16 A30 RMK A01 T01730156  RH  090%=      5-min Rain = 0
KBI1 181428Z 18012G17KT 17/16 A30 RMK A01 T01740156  RH  089%=      5-min Rain = 0
KBI1 181429Z 18014KT 17/16 A30 RMK A01 T01740155  RH  089%=      5-min Rain = 0
KBI1 181430Z 18012KT 17/16 A30 RMK A01 T01740156  RH  089%=      5-min Rain = 0
KBI1 181431Z 18014KT 17/16 A30 RMK A01 T01740156  RH  089%=      5-min Rain = 0
KBI1 181432Z 18015KT 18/16 A30 RMK A01 T01750155  RH  088%=      5-min Rain = 0
KBI1 181433Z 18014KT 18/16 A30 RMK A01 T01760155  RH  088%=      5-min Rain = 0
KBI1 181434Z 18014KT 18/16 A3001 RMK A01 T01760155  RH  087%=      5-min Rain = 0
KBI1 181435Z 17012KT 18/16 A3001 RMK A01 T01760155  RH  087%=      5-min Rain = 0
KBI1 181436Z 17014KT 18/16 A30 RMK A01 T01770155  RH  087%=      5-min Rain = 0
KBI1 181437Z 18013KT 18/15 A3001 RMK A01 T01770154  RH  087%=      5-min Rain = 0
KBI1 181438Z 18013KT 18/16 A3001 RMK A01 T01770155  RH  087%=      5-min Rain = 0
KBI1 181439Z 18011KT 18/16 A3001 RMK A01 T01780155  RH  086%=      5-min Rain = 0
KBI1 181440Z 18011KT 18/16 A3001 RMK A01 T01780155  RH  086%=      5-min Rain = 0
KBI1 181441Z 19010KT 18/16 A3001 RMK A01 T01790155  RH  086%=      5-min Rain = 0
KBI1 181442Z 19012KT 18/16 A3001 RMK A01 T01780155  RH  086%=      5-min Rain = 0
KBI1 181443Z 19013KT 18/15 A3001 RMK A01 T01770154  RH  086%=      5-min Rain = 0
KBI1 181444Z 19011KT 18/15 A3001 RMK A01 T01760154  RH  087%=      5-min Rain = 0
KBI1 181445Z 19012G17KT 18/16 A3001 RMK A01 T01770155  RH  087%=      5-min Rain = 0
KBI1 181446Z 19012KT 18/15 A3001 RMK A01 T01770154  RH  086%=      5-min Rain = 0
KBI1 181447Z 20012KT 18/16 A3001 RMK A01 T01780155  RH  086%=      5-min Rain = 0
KBI1 181448Z 19010KT 18/16 A3001 RMK A01 T01790155  RH  086%=      5-min Rain = 0
KBI1 181449Z 19014KT 18/16 A3001 RMK A01 T01790155  RH  086%=      5-min Rain = 0
KBI1 181450Z 19011KT 18/15 A3001 RMK A01 T01790154  RH  085%=      5-min Rain = 0
KBI1 181451Z 20012KT 18/16 A3001 RMK A01 T01800155  RH  085%=      5-min Rain = 0
KBI1 181452Z 20014KT 18/15 A3001 RMK A01 T01800154  RH  085%=      5-min Rain = 0
KBI1 181453Z 20013KT 18/15 A3001 RMK A01 T01800154  RH  085%=      5-min Rain = 0
KBI1 181454Z 19011KT 18/15 A3001 RMK A01 T01800154  RH  085%=      5-min Rain = 0
KBI1 181455Z 19012KT 18/16 A3001 RMK A01 T01810155  RH  085%=      5-min Rain = 0
KBI1 181456Z 19012KT 18/15 A3001 RMK A01 T01820154  RH  084%=      5-min Rain = 0
KBI1 181457Z 18010KT 18/16 A3001 RMK A01 T01830155  RH  083%=      5-min Rain = 0
KBI1 181458Z 20011KT 19/16 A3002 RMK A01 T01850155  RH  083%=      5-min Rain = 0
KBI1 181459Z 20010KT 19/15 A3002 RMK A01 T01850154  RH  082%=      5-min Rain = 0
KBI1 181500Z 19012KT 19/16 A3002 RMK A01 T01860155  RH  082%=      5-min Rain = 0
KBI1 181501Z 20012KT 19/15 A3002 RMK A01 T01860154  RH  082%=      5-min Rain = 0
KBI1 181502Z 19010KT 19/16 A3002 RMK A01 T01860155  RH  082%=      5-min Rain = 0
KBI1 181503Z 19012G17KT 19/16 A3002 RMK A01 T01890157  RH  082%=      5-min Rain = 0
KBI1 181504Z 19013KT 19/16 A3002 RMK A01 T01900155  RH  080%=      5-min Rain = 0
KBI1 181505Z 19013KT 19/16 A3002 RMK A01 T01900155  RH  080%=      5-min Rain = 0
KBI1 181506Z 19013KT 19/15 A3002 RMK A01 T01900154  RH  080%=      5-min Rain = 0
KBI1 181507Z 19011KT 19/16 A3002 RMK A01 T01900155  RH  080%=      5-min Rain = 0
KBI1 181508Z 19012KT 19/16 A3002 RMK A01 T01910155  RH  079%=      5-min Rain = 0
KBI1 181509Z 19010KT 19/16 A3002 RMK A01 T01920155  RH  079%=      5-min Rain = 0
KBI1 181510Z 19011KT 19/16 A3002 RMK A01 T01930155  RH  079%=      5-min Rain = 0
KBI1 181511Z 19012KT 19/16 A3002 RMK A01 T01930155  RH  078%=      5-min Rain = 0
KBI1 181512Z 19014KT 19/15 A3002 RMK A01 T01930154  RH  078%=      5-min Rain = 0
KBI1 181513Z 19013KT 19/15 A3002 RMK A01 T01920154  RH  079%=      5-min Rain = 0
KBI1 181514Z 19014KT 19/15 A3002 RMK A01 T01900154  RH  079%=      5-min Rain = 0
KBI1 181515Z 19012KT 19/15 A3002 RMK A01 T01900154  RH  079%=      5-min Rain = 0
KBI1 181516Z 20013KT 19/15 A3002 RMK A01 T01910154  RH  079%=      5-min Rain = 0
KBI1 181517Z 19012KT 19/15 A3002 RMK A01 T01910154  RH  079%=      5-min Rain = 0
KBI1 181518Z 18011KT 19/15 A3002 RMK A01 T01910154  RH  079%=      5-min Rain = 0
KBI1 181519Z 18012KT 19/16 A3002 RMK A01 T01930155  RH  078%=      5-min Rain = 0
KBI1 181520Z 19013KT 19/15 A3002 RMK A01 T01940154  RH  078%=      5-min Rain = 0
KBI1 181521Z 19012KT 19/15 A3002 RMK A01 T01940154  RH  078%=      5-min Rain = 0
KBI1 181522Z 19011KT 19/15 A3002 RMK A01 T01940154  RH  077%=      5-min Rain = 0
KBI1 181523Z 18012KT 20/16 A3002 RMK A01 T01950155  RH  078%=      5-min Rain = 0
KBI1 181524Z 18011KT 20/15 A3002 RMK A01 T01960154  RH  077%=      5-min Rain = 0
KBI1 181525Z 19012KT 20/16 A3002 RMK A01 T01970155  RH  077%=      5-min Rain = 0
KBI1 181526Z 19011KT 20/15 A3002 RMK A01 T01970154  RH  076%=      5-min Rain = 0
KBI1 181527Z 19011KT 20/15 A3002 RMK A01 T01970154  RH  076%=      5-min Rain = 0
KBI1 181528Z 18010KT 20/15 A3002 RMK A01 T01970154  RH  077%=      5-min Rain = 0
KBI1 181529Z 18010KT 20/16 A3002 RMK A01 T01980155  RH  076%=      5-min Rain = 0
KBI1 181530Z 18010KT 20/16 A3002 RMK A01 T02010155  RH  075%=      5-min Rain = 0
KBI1 181531Z 19009KT 20/16 A3002 RMK A01 T02030156  RH  074%=      5-min Rain = 0
KBI1 181532Z 18010KT 20/16 A3002 RMK A01 T02040156  RH  074%=      5-min Rain = 0
KBI1 181533Z 18011G16KT 21/16 A3002 RMK A01 T02060156  RH  073%=      5-min Rain = 0
KBI1 181534Z 18012KT 21/16 A3002 RMK A01 T02060155  RH  072%=      5-min Rain = 0
KBI1 181535Z 18009KT 20/15 A3002 RMK A01 T02040154  RH  073%=      5-min Rain = 0
KBI1 181536Z 19012KT 20/16 A3002 RMK A01 T02030155  RH  074%=      5-min Rain = 0
KBI1 181537Z 19011KT 20/15 A3002 RMK A01 T02030154  RH  073%=      5-min Rain = 0
KBI1 181538Z 17012KT 20/16 A3002 RMK A01 T02030155  RH  074%=      5-min Rain = 0
KBI1 181539Z 17012KT 20/15 A3002 RMK A01 T02040154  RH  073%=      5-min Rain = 0
KBI1 181540Z 17012KT 20/15 A3002 RMK A01 T02040154  RH  073%=      5-min Rain = 0
KBI1 181541Z 18009KT 20/16 A3002 RMK A01 T02040155  RH  073%=      5-min Rain = 0
KBI1 181542Z 17011KT 21/16 A3002 RMK A01 T02060156  RH  073%=      5-min Rain = 0
KBI1 181543Z 17010KT 21/16 A3002 RMK A01 T02070155  RH  072%=      5-min Rain = 0
KBI1 181544Z 19010KT 21/16 A3002 RMK A01 T02080155  RH  072%=      5-min Rain = 0
KBI1 181545Z 19009G14KT 21/16 A3002 RMK A01 T02090156  RH  072%=      5-min Rain = 0
KBI1 181546Z 18010KT 21/16 A3002 RMK A01 T02110155  RH  071%=      5-min Rain = 0
KBI1 181547Z 18011KT 21/16 A3002 RMK A01 T02110156  RH  071%=      5-min Rain = 0
KBI1 181548Z 18010KT 21/16 A3002 RMK A01 T02120155  RH  070%=      5-min Rain = 0
KBI1 181549Z 20012KT 21/15 A3002 RMK A01 T02110154  RH  070%=      5-min Rain = 0
KBI1 181550Z 19010KT 21/15 A3002 RMK A01 T02120154  RH  070%=      5-min Rain = 0
KBI1 181551Z 18011KT 21/16 A3002 RMK A01 T02140155  RH  069%=      5-min Rain = 0
KBI1 181552Z 18012KT 21/16 A3002 RMK A01 T02140155  RH  069%=      5-min Rain = 0
KBI1 181553Z 20013KT 21/15 A3002 RMK A01 T02140154  RH  068%=      5-min Rain = 0
KBI1 181554Z 20011KT 21/15 A3002 RMK A01 T02130152  RH  068%=      5-min Rain = 0
KBI1 181555Z 20012KT 21/15 A3002 RMK A01 T02140154  RH  069%=      5-min Rain = 0
KBI1 181556Z 20011KT 21/15 A3002 RMK A01 T02140154  RH  068%=      5-min Rain = 0
KBI1 181557Z 20012KT 22/15 A3002 RMK A01 T02150154  RH  068%=      5-min Rain = 0
KBI1 181558Z 19010KT 22/15 A3002 RMK A01 T02150154  RH  068%=      5-min Rain = 0
KBI1 181559Z 19010KT 22/16 A3002 RMK A01 T02150156  RH  069%=      5-min Rain = 0
KBI1 181600Z 19010KT 22/16 A3002 RMK A01 T02180156  RH  068%=      5-min Rain = 0
KBI1 181601Z 18010KT 22/16 A3002 RMK A01 T02180155  RH  067%=      5-min Rain = 0
KBI1 181602Z 20010KT 22/15 A3002 RMK A01 T02180154  RH  067%=      5-min Rain = 0
KBI1 181603Z 20010KT 22/16 A3002 RMK A01 T02190155  RH  067%=      5-min Rain = 0
KBI1 181604Z 18010KT 22/15 A3002 RMK A01 T02200154  RH  066%=      5-min Rain = 0
KBI1 181605Z 17010KT 22/15 A3002 RMK A01 T02180154  RH  067%=      5-min Rain = 0
KBI1 181606Z 19011KT 22/15 A3002 RMK A01 T02180154  RH  067%=      5-min Rain = 0
KBI1 181607Z 18011KT 22/15 A3002 RMK A01 T02200153  RH  066%=      5-min Rain = 0
KBI1 181608Z 18010KT 22/15 A3002 RMK A01 T02200151  RH  065%=      5-min Rain = 0
KBI1 181609Z 19011KT 22/15 A3002 RMK A01 T02200152  RH  065%=      5-min Rain = 0
KBI1 181610Z 18010KT 22/15 A3002 RMK A01 T02210153  RH  065%=      5-min Rain = 0
KBI1 181611Z 18010KT 22/15 A3002 RMK A01 T02220152  RH  065%=      5-min Rain = 0
KBI1 181612Z 17011KT 22/15 A3002 RMK A01 T02220153  RH  065%=      5-min Rain = 0
KBI1 181613Z 18010KT 22/15 A3002 RMK A01 T02220153  RH  065%=      5-min Rain = 0
KBI1 181614Z 18009KT 22/15 A3002 RMK A01 T02220153  RH  065%=      5-min Rain = 0
KBI1 181615Z 19009KT 22/15 A3002 RMK A01 T02220154  RH  065%=      5-min Rain = 0
KBI1 181616Z 21011KT 23/16 A3002 RMK A01 T02260155  RH  064%=      5-min Rain = 0
KBI1 181617Z 20009KT 23/15 A3002 RMK A01 T02260154  RH  064%=      5-min Rain = 0
KBI1 181618Z 19012KT 23/16 A3002 RMK A01 T02270155  RH  064%=      5-min Rain = 0
KBI1 181619Z 18011KT 23/15 A3002 RMK A01 T02270154  RH  063%=      5-min Rain = 0
KBI1 181620Z 18010KT 23/15 A3002 RMK A01 T02260153  RH  063%=      5-min Rain = 0
KBI1 181621Z 19010KT 23/15 A3002 RMK A01 T02270153  RH  063%=      5-min Rain = 0
KBI1 181622Z 20013KT 23/15 A3002 RMK A01 T02280152  RH  062%=      5-min Rain = 0
KBI1 181623Z 19010KT 23/15 A3002 RMK A01 T02270151  RH  062%=      5-min Rain = 0
KBI1 181624Z 18010KT 23/15 A3002 RMK A01 T02270151  RH  062%=      5-min Rain = 0
KBI1 181625Z 18009KT 23/15 A3002 RMK A01 T02290151  RH  062%=      5-min Rain = 0
KBI1 181626Z 19009KT 23/15 A3002 RMK A01 T02310153  RH  061%=      5-min Rain = 0
KBI1 181627Z 19011KT 23/15 A3002 RMK A01 T02320153  RH  061%=      5-min Rain = 0
KBI1 181628Z 20011KT 23/15 A3002 RMK A01 T02310151  RH  061%=      5-min Rain = 0
KBI1 181629Z 21010KT 23/15 A3002 RMK A01 T02310149  RH  060%=      5-min Rain = 0
KBI1 181630Z 19009KT 23/15 A3002 RMK A01 T02310151  RH  061%=      5-min Rain = 0
KBI1 181631Z 19009KT 23/15 A3002 RMK A01 T02310152  RH  061%=      5-min Rain = 0
KBI1 181632Z 19010KT 23/15 A3002 RMK A01 T02330153  RH  061%=      5-min Rain = 0
KBI1 181633Z 19009KT 24/15 A3002 RMK A01 T02350152  RH  060%=      5-min Rain = 0
KBI1 181634Z 19011KT 23/15 A3002 RMK A01 T02340153  RH  060%=      5-min Rain = 0
KBI1 181635Z 19011KT 24/15 A3002 RMK A01 T02350152  RH  060%=      5-min Rain = 0
KBI1 181636Z 20011KT 23/15 A3002 RMK A01 T02340150  RH  059%=      5-min Rain = 0
KBI1 181637Z 19008KT 23/15 A3002 RMK A01 T02340150  RH  059%=      5-min Rain = 0
KBI1 181638Z 18007KT 24/15 A3002 RMK A01 T02360153  RH  060%=      5-min Rain = 0
KBI1 181639Z 20011KT 24/15 A3002 RMK A01 T02400150  RH  057%=      5-min Rain = 0
KBI1 181640Z 21010KT 24/15 A3002 RMK A01 T02390146  RH  056%=      5-min Rain = 0
KBI1 181641Z 20012KT 24/15 A3002 RMK A01 T02380148  RH  057%=      5-min Rain = 0
KBI1 181642Z 20010KT 24/15 A3002 RMK A01 T02360145  RH  057%=      5-min Rain = 0
KBI1 181643Z 20010KT 23/15 A3002 RMK A01 T02340145  RH  057%=      5-min Rain = 0
KBI1 181644Z 21010KT 24/15 A3002 RMK A01 T02350145  RH  057%=      5-min Rain = 0
KBI1 181645Z 21011KT 24/15 A3002 RMK A01 T02360148  RH  058%=      5-min Rain = 0
KBI1 181646Z 21010KT 24/15 A3002 RMK A01 T02360147  RH  057%=      5-min Rain = 0
KBI1 181647Z 19008KT 24/15 A3002 RMK A01 T02360149  RH  058%=      5-min Rain = 0
KBI1 181648Z 17009G14KT 24/15 A3002 RMK A01 T02380149  RH  057%=      5-min Rain = 0
KBI1 181649Z 18011KT 24/15 A3002 RMK A01 T02400147  RH  056%=      5-min Rain = 0
KBI1 181650Z 20010KT 24/15 A3002 RMK A01 T02410148  RH  056%=      5-min Rain = 0
KBI1 181651Z 20009KT 24/15 A3002 RMK A01 T02400148  RH  056%=      5-min Rain = 0
KBI1 181652Z 19009KT 24/15 A3002 RMK A01 T02410149  RH  056%=      5-min Rain = 0
KBI1 181653Z 18009KT 24/15 A3002 RMK A01 T02420148  RH  056%=      5-min Rain = 0
KBI1 181654Z 18012KT 24/15 A3002 RMK A01 T02430148  RH  055%=      5-min Rain = 0
KBI1 181655Z 19011KT 25/15 A3002 RMK A01 T02450148  RH  055%=      5-min Rain = 0
KBI1 181656Z 19010KT 25/15 A3002 RMK A01 T02450147  RH  054%=      5-min Rain = 0
KBI1 181657Z 20008KT 24/15 A3002 RMK A01 T02430147  RH  055%=      5-min Rain = 0
KBI1 181658Z 21009KT 25/15 A3002 RMK A01 T02450147  RH  054%=      5-min Rain = 0
KBI1 181659Z 21009KT 25/15 A3002 RMK A01 T02470147  RH  054%=      5-min Rain = 0
KBI1 181700Z 21012KT 25/15 A3002 RMK A01 T02470146  RH  053%=      5-min Rain = 0
KBI1 181701Z 20012KT 25/15 A3002 RMK A01 T02470146  RH  053%=      5-min Rain = 0
KBI1 181702Z 20012KT 25/15 A3002 RMK A01 T02470148  RH  054%=      5-min Rain = 0
KBI1 181703Z 20008KT 25/15 A3002 RMK A01 T02460148  RH  054%=      5-min Rain = 0
KBI1 181704Z 20008KT 25/15 A3002 RMK A01 T02470148  RH  054%=      5-min Rain = 0
KBI1 181705Z 22010KT 25/15 A3002 RMK A01 T02490146  RH  053%=      5-min Rain = 0
KBI1 181706Z 22009KT 25/14 A3001 RMK A01 T02500144  RH  052%=      5-min Rain = 0
KBI1 181707Z 21009KT 25/15 A3001 RMK A01 T02520145  RH  051%=      5-min Rain = 0
KBI1 181708Z 21011KT 25/14 A3001 RMK A01 T02540142  RH  050%=      5-min Rain = 0
KBI1 181709Z 22009KT 25/14 A3001 RMK A01 T02530141  RH  050%=      5-min Rain = 0
KBI1 181710Z 21007KT 25/14 A3001 RMK A01 T02530141  RH  050%=      5-min Rain = 0
KBI1 181711Z 20008KT 25/14 A3001 RMK A01 T02530144  RH  051%=      5-min Rain = 0
KBI1 181712Z 19009KT 26/14 A3001 RMK A01 T02550143  RH  050%=      5-min Rain = 0
KBI1 181713Z 21008KT 26/14 A3001 RMK A01 T02550141  RH  049%=      5-min Rain = 0
KBI1 181714Z 23007KT 26/14 A3001 RMK A01 T02570140  RH  048%=      5-min Rain = 0
KBI1 181715Z 22006KT 26/14 A3002 RMK A01 T02590144  RH  049%=      5-min Rain = 0
KBI1 181716Z 20010KT 26/14 A3001 RMK A01 T02620144  RH  048%=      5-min Rain = 0
KBI1 181717Z 20008KT 26/14 A3001 RMK A01 T02600141  RH  048%=      5-min Rain = 0
KBI1 181718Z 21007KT 26/14 A3001 RMK A01 T02580142  RH  049%=      5-min Rain = 0
KBI1 181719Z 20007KT 26/14 A3001 RMK A01 T02570144  RH  050%=      5-min Rain = 0
KBI1 181720Z 21008KT 26/14 A3001 RMK A01 T02590142  RH  049%=      5-min Rain = 0
KBI1 181721Z 22010KT 26/14 A3001 RMK A01 T02600138  RH  047%=      5-min Rain = 0
KBI1 181722Z 22009KT 26/14 A3001 RMK A01 T02600140  RH  048%=      5-min Rain = 0
KBI1 181723Z 22007KT 26/14 A3001 RMK A01 T02600141  RH  048%=      5-min Rain = 0
KBI1 181724Z 19008KT 26/14 A3001 RMK A01 T02590142  RH  049%=      5-min Rain = 0
KBI1 181725Z 19007KT 26/14 A3001 RMK A01 T02590141  RH  048%=      5-min Rain = 0
KBI1 181726Z 21008KT 26/14 A3001 RMK A01 T02610140  RH  047%=      5-min Rain = 0
KBI1 181727Z 23008KT 26/14 A3001 RMK A01 T02610142  RH  048%=      5-min Rain = 0
KBI1 181728Z 20008KT 26/14 A3001 RMK A01 T02610143  RH  048%=      5-min Rain = 0
KBI1 181729Z 19008KT 26/14 A3001 RMK A01 T02620142  RH  047%=      5-min Rain = 0
KBI1 181730Z 20008KT 26/14 A3001 RMK A01 T02620142  RH  047%=      5-min Rain = 0
KBI1 181731Z 21006KT 26/14 A3001 RMK A01 T02630144  RH  048%=      5-min Rain = 0
KBI1 181732Z 20008KT 27/14 A3001 RMK A01 T02680141  RH  046%=      5-min Rain = 0
KBI1 181733Z 20009KT 27/14 A3001 RMK A01 T02690136  RH  044%=      5-min Rain = 0
KBI1 181734Z 22009KT 27/13 A3001 RMK A01 T02680134  RH  043%=      5-min Rain = 0
KBI1 181735Z 24008KT 27/13 A3001 RMK A01 T02670134  RH  044%=      5-min Rain = 0
KBI1 181736Z 25009KT 27/13 A3001 RMK A01 T02670132  RH  043%=      5-min Rain = 0
KBI1 181737Z 24006KT 27/14 A3001 RMK A01 T02670135  RH  044%=      5-min Rain = 0
KBI1 181738Z 23007KT 27/14 A30 RMK A01 T02700138  RH  044%=      5-min Rain = 0
KBI1 181739Z 21007KT 27/14 A30 RMK A01 T02730140  RH  044%=      5-min Rain = 0
KBI1 181740Z 20009KT 28/14 A30 RMK A01 T02750135  RH  042%=      5-min Rain = 0
KBI1 181741Z 21007KT 27/13 A30 RMK A01 T02720133  RH  042%=      5-min Rain = 0
KBI1 181742Z 22006KT 27/13 A30 RMK A01 T02700133  RH  043%=      5-min Rain = 0
KBI1 181743Z 22004KT 27/13 A30 RMK A01 T02670132  RH  043%=      5-min Rain = 0
KBI1 181744Z 21006KT 27/13 A30 RMK A01 T02670132  RH  044%=      5-min Rain = 0
KBI1 181745Z 17007KT 27/13 A30 RMK A01 T02710134  RH  043%=      5-min Rain = 0
KBI1 181746Z 19010G15KT 27/13 A30 RMK A01 T02740129  RH  041%=      5-min Rain = 0
KBI1 181747Z 20007KT 27/12 A30 RMK A01 T02740123  RH  039%=      5-min Rain = 0
KBI1 181748Z 22008KT 27/12 A30 RMK A01 T02730119  RH  038%=      5-min Rain = 0
KBI1 181749Z 22007KT 27/12 A30 RMK A01 T02730115  RH  037%=      5-min Rain = 0
KBI1 181750Z 25006KT 27/12 A30 RMK A01 T02730117  RH  038%=      5-min Rain = 0
KBI1 181751Z 27006KT 28/12 A30 RMK A01 T02760115  RH  037%=      5-min Rain = 0
KBI1 181752Z 28004KT 28/12 A3001 RMK A01 T02760115  RH  037%=      5-min Rain = 0
KBI1 181753Z 24004KT 28/12 A3001 RMK A01 T02770115  RH  036%=      5-min Rain = 0
KBI1 181754Z 23003KT 28/12 A3001 RMK A01 T02790115  RH  036%=      5-min Rain = 0
KBI1 181755Z 22002KT 28/12 A3001 RMK A01 T02800120  RH  037%=      5-min Rain = 0
KBI1 181756Z 22004KT 28/13 A3001 RMK A01 T02820130  RH  039%=      5-min Rain = 0
KBI1 181757Z 22005KT 28/13 A3001 RMK A01 T02820131  RH  039%=      5-min Rain = 0
KBI1 181758Z 21005KT 28/13 A3001 RMK A01 T02800132  RH  040%=      5-min Rain = 0
KBI1 181759Z 20006KT 28/13 A3001 RMK A01 T02810129  RH  039%=      5-min Rain = 0
KBI1 181800Z 19006KT 28/13 A3001 RMK A01 T02800127  RH  039%=      5-min Rain = 0
KBI1 181801Z 24007KT 28/13 A30 RMK A01 T02800126  RH  038%=      5-min Rain = 0
KBI1 181802Z 26009KT 28/12 A30 RMK A01 T02840120  RH  036%=      5-min Rain = 0
KBI1 181803Z 24009KT 28/12 A30 RMK A01 T02840118  RH  036%=      5-min Rain = 0
KBI1 181804Z 24007KT 28/12 A30 RMK A01 T02820117  RH  036%=      5-min Rain = 0
KBI1 181805Z 24005KT 28/12 A30 RMK A01 T02790116  RH  036%=      5-min Rain = 0
KBI1 181806Z 20002KT 28/12 A30 RMK A01 T02780118  RH  037%=      5-min Rain = 0
KBI1 181807Z 26001KT 28/12 A30 RMK A01 T02820118  RH  036%=      5-min Rain = 0
KBI1 181808Z 18001KT 28/12 A30 RMK A01 T02830119  RH  036%=      5-min Rain = 0
KBI1 181809Z 25004KT 29/12 A30 RMK A01 T02860122  RH  036%=      5-min Rain = 0
KBI1 181810Z 28005KT 29/12 A30 RMK A01 T02880121  RH  036%=      5-min Rain = 0
KBI1 181811Z 25005KT 29/12 A30 RMK A01 T02870120  RH  035%=      5-min Rain = 0
KBI1 181812Z 24006KT 29/12 A30 RMK A01 T02880119  RH  035%=      5-min Rain = 0
KBI1 181813Z 23007KT 29/12 A30 RMK A01 T02880117  RH  035%=      5-min Rain = 0
KBI1 181814Z 22007KT 29/11 A30 RMK A01 T02870114  RH  034%=      5-min Rain = 0
KBI1 181815Z 22005KT 29/11 A30 RMK A01 T02860112  RH  034%=      5-min Rain = 0
KBI1 181816Z 20004KT 29/11 A30 RMK A01 T02850113  RH  034%=      5-min Rain = 0
KBI1 181817Z 21004KT 29/11 A30 RMK A01 T02860109  RH  033%=      5-min Rain = 0
KBI1 181818Z 23005KT 29/11 A30 RMK A01 T02850110  RH  034%=      5-min Rain = 0
KBI1 181819Z 23005KT 29/11 A30 RMK A01 T02870111  RH  034%=      5-min Rain = 0
KBI1 181820Z 22002KT 29/11 A30 RMK A01 T02880111  RH  033%=      5-min Rain = 0
KBI1 181821Z 27004KT 29/11 A30 RMK A01 T02880113  RH  034%=      5-min Rain = 0
KBI1 181822Z 28003KT 29/11 A30 RMK A01 T02900112  RH  033%=      5-min Rain = 0
KBI1 181823Z 26003KT 29/11 A30 RMK A01 T02890112  RH  033%=      5-min Rain = 0
KBI1 181824Z 25002KT 29/11 A2999 RMK A01 T02890114  RH  034%=      5-min Rain = 0
KBI1 181825Z 26005KT 29/12 A2999 RMK A01 T02910116  RH  034%=      5-min Rain = 0
KBI1 181826Z 28007KT 30/11 A2999 RMK A01 T02950111  RH  032%=      5-min Rain = 0
KBI1 181827Z 27004KT 29/10 A2999 RMK A01 T02940104  RH  031%=      5-min Rain = 0
KBI1 181828Z 28005KT 29/11 A2999 RMK A01 T02910108  RH  032%=      5-min Rain = 0
KBI1 181829Z 24007KT 29/12 A2999 RMK A01 T02930116  RH  034%=      5-min Rain = 0
KBI1 181830Z 25007KT 30/11 A2999 RMK A01 T02950113  RH  032%=      5-min Rain = 0
KBI1 181831Z 25007KT 29/11 A2999 RMK A01 T02930108  RH  032%=      5-min Rain = 0
KBI1 181832Z 22006KT 29/11 A2999 RMK A01 T02900110  RH  033%=      5-min Rain = 0
KBI1 181833Z 21004KT 29/11 A2999 RMK A01 T02910108  RH  032%=      5-min Rain = 0
KBI1 181834Z 21004KT 29/11 A2999 RMK A01 T02910111  RH  033%=      5-min Rain = 0
KBI1 181835Z 25003KT 29/11 A2999 RMK A01 T02910111  RH  033%=      5-min Rain = 0
KBI1 181836Z 25004KT 29/11 A2999 RMK A01 T02910112  RH  033%=      5-min Rain = 0
KBI1 181837Z 23005KT 30/11 A2999 RMK A01 T02950109  RH  032%=      5-min Rain = 0
KBI1 181838Z 23007KT 30/11 A2999 RMK A01 T02960107  RH  031%=      5-min Rain = 0
KBI1 181839Z 24005KT 30/10 A2999 RMK A01 T02950101  RH  030%=      5-min Rain = 0
KBI1 181840Z 25005KT 30/10 A2999 RMK A01 T02950101  RH  030%=      5-min Rain = 0
KBI1 181841Z 25003KT 29/10 A2999 RMK A01 T02940098  RH  029%=      5-min Rain = 0
KBI1 181842Z 21003KT 30/10 A2998 RMK A01 T02950100  RH  030%=      5-min Rain = 0
KBI1 181843Z 20001KT 30/10 A2998 RMK A01 T02970101  RH  030%=      5-min Rain = 0
KBI1 181844Z 25004KT 30/11 A2998 RMK A01 T03000105  RH  030%=      5-min Rain = 0
KBI1 181845Z 26003KT 30/11 A2998 RMK A01 T03000107  RH  030%=      5-min Rain = 0
KBI1 181846Z 26006KT 30/11 A2998 RMK A01 T03020110  RH  031%=      5-min Rain = 0
KBI1 181847Z 25005KT 30/11 A2998 RMK A01 T03040107  RH  030%=      5-min Rain = 0
KBI1 181848Z 24002KT 30/10 A2998 RMK A01 T03020104  RH  029%=      5-min Rain = 0
KBI1 181849Z 23002KT 30/11 A2998 RMK A01 T03000105  RH  030%=      5-min Rain = 0
KBI1 181850Z 21005KT 30/11 A2998 RMK A01 T03000107  RH  030%=      5-min Rain = 0
KBI1 181851Z 23002KT 30/10 A2998 RMK A01 T03000104  RH  030%=      5-min Rain = 0
KBI1 181852Z 27001KT 30/11 A2998 RMK A01 T03000107  RH  030%=      5-min Rain = 0
KBI1 181853Z 01001KT 30/11 A2998 RMK A01 T03010107  RH  030%=      5-min Rain = 0
KBI1 181854Z 29000KT 30/11 A2998 RMK A01 T03010108  RH  030%=      5-min Rain = 0
KBI1 181855Z 24001KT 30/11 A2998 RMK A01 T03020111  RH  031%=      5-min Rain = 0
KBI1 181856Z 25004KT 30/11 A2998 RMK A01 T03040106  RH  029%=      5-min Rain = 0
KBI1 181857Z 24004KT 31/11 A2998 RMK A01 T03060106  RH  029%=      5-min Rain = 0
KBI1 181858Z 21004KT 31/10 A2998 RMK A01 T03060103  RH  029%=      5-min Rain = 0
KBI1 181859Z 22005KT 30/10 A2998 RMK A01 T03040103  RH  029%=      5-min Rain = 0
KBI1 181900Z 25006KT 30/10 A2998 RMK A01 T03040098  RH  028%=      5-min Rain = 0
KBI1 181901Z 27006KT 31/09 A2998 RMK A01 T03060088  RH  026%=      5-min Rain = 0
KBI1 181902Z 28005KT 31/09 A2997 RMK A01 T03070090  RH  026%=      5-min Rain = 0
KBI1 181903Z 28002KT 31/09 A2997 RMK A01 T03050091  RH  026%=      5-min Rain = 0
KBI1 181904Z 29003KT 30/09 A2997 RMK A01 T03040091  RH  026%=      5-min Rain = 0
KBI1 181905Z 27003KT 30/09 A2997 RMK A01 T03040093  RH  027%=      5-min Rain = 0
KBI1 181906Z 27006KT 30/10 A2997 RMK A01 T03040098  RH  028%=      5-min Rain = 0
KBI1 181907Z 26007KT 31/10 A2997 RMK A01 T03050099  RH  028%=      5-min Rain = 0
KBI1 181908Z 27007KT 31/10 A2997 RMK A01 T03050097  RH  028%=      5-min Rain = 0
KBI1 181909Z 28006KT 30/09 A2997 RMK A01 T03040094  RH  027%=      5-min Rain = 0
KBI1 181910Z 27005KT 30/09 A2997 RMK A01 T03020094  RH  027%=      5-min Rain = 0
KBI1 181911Z 27005KT 30/10 A2997 RMK A01 T03020099  RH  028%=      5-min Rain = 0
KBI1 181912Z 23006KT 31/10 A2997 RMK A01 T03050099  RH  028%=      5-min Rain = 0
KBI1 181913Z 21005KT 31/10 A2997 RMK A01 T03060097  RH  027%=      5-min Rain = 0
KBI1 181914Z 23004KT 31/10 A2997 RMK A01 T03050097  RH  028%=      5-min Rain = 0
KBI1 181915Z 26003KT 31/09 A2997 RMK A01 T03060094  RH  027%=      5-min Rain = 0
KBI1 181916Z 27004KT 31/09 A2997 RMK A01 T03070094  RH  027%=      5-min Rain = 0
KBI1 181917Z 30004KT 31/09 A2997 RMK A01 T03050094  RH  027%=      5-min Rain = 0
KBI1 181918Z 29003KT 30/10 A2997 RMK A01 T03040096  RH  027%=      5-min Rain = 0
KBI1 181919Z 22003KT 30/10 A2997 RMK A01 T03040099  RH  028%=      5-min Rain = 0
KBI1 181920Z 22006KT 31/10 A2997 RMK A01 T03070095  RH  027%=      5-min Rain = 0
KBI1 181921Z 22006KT 31/10 A2997 RMK A01 T03090097  RH  027%=      5-min Rain = 0
KBI1 181922Z 24007KT 31/10 A2997 RMK A01 T03110096  RH  026%=      5-min Rain = 0
KBI1 181923Z 25006KT 31/09 A2997 RMK A01 T03100093  RH  026%=      5-min Rain = 0
KBI1 181924Z 25005KT 31/09 A2997 RMK A01 T03080089  RH  026%=      5-min Rain = 0
KBI1 181925Z 23003KT 31/09 A2997 RMK A01 T03060090  RH  026%=      5-min Rain = 0
KBI1 181926Z 25002G7KT 31/09 A2997 RMK A01 T03060086  RH  025%=      5-min Rain = 0
KBI1 181927Z 26006KT 31/09 A2997 RMK A01 T03060088  RH  026%=      5-min Rain = 0
KBI1 181928Z 25005KT 31/09 A2997 RMK A01 T03070090  RH  026%=      5-min Rain = 0
KBI1 181929Z 29003KT 31/09 A2996 RMK A01 T03080090  RH  026%=      5-min Rain = 0
KBI1 181930Z 27002KT 31/09 A2996 RMK A01 T03080089  RH  026%=      5-min Rain = 0
KBI1 181931Z 25001KT 31/09 A2996 RMK A01 T03080092  RH  026%=      5-min Rain = 0
KBI1 181932Z 21001KT 31/09 A2996 RMK A01 T03100093  RH  026%=      5-min Rain = 0
KBI1 181933Z 19002KT 31/09 A2996 RMK A01 T03120093  RH  026%=      5-min Rain = 0
KBI1 181934Z 23002KT 31/09 A2996 RMK A01 T03120092  RH  026%=      5-min Rain = 0
KBI1 181935Z 26003KT 31/09 A2996 RMK A01 T03100093  RH  026%=      5-min Rain = 0
KBI1 181936Z 25005KT 31/09 A2996 RMK A01 T03110093  RH  026%=      5-min Rain = 0
KBI1 181937Z 26003KT 31/09 A2996 RMK A01 T03110089  RH  025%=      5-min Rain = 0
KBI1 181938Z 27006KT 31/08 A2996 RMK A01 T03100084  RH  025%=      5-min Rain = 0
KBI1 181939Z 27005KT 31/08 A2996 RMK A01 T03110081  RH  024%=      5-min Rain = 0
KBI1 181940Z 27005KT 31/08 A2996 RMK A01 T03100082  RH  024%=      5-min Rain = 0
KBI1 181941Z 27004KT 31/08 A2996 RMK A01 T03100084  RH  024%=      5-min Rain = 0
KBI1 181942Z 23002KT 31/08 A2996 RMK A01 T03090082  RH  024%=      5-min Rain = 0
KBI1 181943Z 27001KT 31/08 A2996 RMK A01 T03090082  RH  024%=      5-min Rain = 0
KBI1 181944Z 30002KT 31/08 A2996 RMK A01 T03100082  RH  024%=      5-min Rain = 0
KBI1 181945Z 29001KT 31/08 A2996 RMK A01 T03110081  RH  024%=      5-min Rain = 0
KBI1 181946Z 23001KT 31/08 A2996 RMK A01 T03140083  RH  024%=      5-min Rain = 0
KBI1 181947Z 22002KT 32/08 A2996 RMK A01 T03160083  RH  024%=      5-min Rain = 0
KBI1 181948Z 22004KT 32/09 A2996 RMK A01 T03180093  RH  025%=      5-min Rain = 0
KBI1 181949Z 21006KT 32/09 A2996 RMK A01 T03190093  RH  025%=      5-min Rain = 0
KBI1 181950Z 23007KT 32/09 A2996 RMK A01 T03190092  RH  025%=      5-min Rain = 0
KBI1 181951Z 25007KT 32/09 A2996 RMK A01 T03170093  RH  025%=      5-min Rain = 0
KBI1 181952Z 26006KT 32/09 A2996 RMK A01 T03150090  RH  025%=      5-min Rain = 0
KBI1 181953Z 27004KT 31/09 A2996 RMK A01 T03130088  RH  025%=      5-min Rain = 0
KBI1 181954Z 28005KT 31/09 A2996 RMK A01 T03120089  RH  025%=      5-min Rain = 0
KBI1 181955Z 22005KT 31/09 A2996 RMK A01 T03140089  RH  025%=      5-min Rain = 0
KBI1 181956Z 18004KT 32/09 A2996 RMK A01 T03170088  RH  024%=      5-min Rain = 0
KBI1 181957Z 18004KT 32/09 A2996 RMK A01 T03170088  RH  024%=      5-min Rain = 0
KBI1 181958Z 17002KT 32/09 A2996 RMK A01 T03180086  RH  024%=      5-min Rain = 0
KBI1 181959Z 16001KT 32/09 A2996 RMK A01 T03180085  RH  024%=      5-min Rain = 0
KBI1 182000Z 20003KT 32/09 A2996 RMK A01 T03180086  RH  024%=      5-min Rain = 0
KBI1 182001Z 22007KT 32/09 A2996 RMK A01 T03180086  RH  024%=      5-min Rain = 0
KBI1 182002Z 23008KT 32/09 A2995 RMK A01 T03180088  RH  024%=      5-min Rain = 0
KBI1 182003Z 25005KT 32/09 A2996 RMK A01 T03160087  RH  024%=      5-min Rain = 0
KBI1 182004Z 22006KT 31/09 A2995 RMK A01 T03140090  RH  025%=      5-min Rain = 0
KBI1 182005Z 22006KT 32/09 A2995 RMK A01 T03150091  RH  025%=      5-min Rain = 0
KBI1 182006Z 27007KT 32/09 A2995 RMK A01 T03160091  RH  025%=      5-min Rain = 0
KBI1 182007Z 28007KT 32/09 A2995 RMK A01 T03160091  RH  025%=      5-min Rain = 0
KBI1 182008Z 23006KT 32/09 A2995 RMK A01 T03150092  RH  025%=      5-min Rain = 0
KBI1 182009Z 22005KT 32/09 A2995 RMK A01 T03180092  RH  025%=      5-min Rain = 0
KBI1 182010Z 21004KT 32/09 A2995 RMK A01 T03180092  RH  025%=      5-min Rain = 0
KBI1 182011Z 23004KT 32/09 A2995 RMK A01 T03200092  RH  025%=      5-min Rain = 0
KBI1 182012Z 21005KT 32/09 A2995 RMK A01 T03210090  RH  024%=      5-min Rain = 0
KBI1 182013Z 19006KT 32/09 A2995 RMK A01 T03190089  RH  024%=      5-min Rain = 0
KBI1 182014Z 20004KT 32/09 A2995 RMK A01 T03160090  RH  025%=      5-min Rain = 0
KBI1 182015Z 21003KT 32/09 A2995 RMK A01 T03150090  RH  025%=      5-min Rain = 0
KBI1 182016Z 23001KT 32/09 A2995 RMK A01 T03150089  RH  025%=      5-min Rain = 0
KBI1 182017Z 21003KT 32/09 A2995 RMK A01 T03160088  RH  024%=      5-min Rain = 0
KBI1 182018Z 19007KT 32/09 A2995 RMK A01 T03180087  RH  024%=      5-min Rain = 0
KBI1 182019Z 20006KT 32/08 A2995 RMK A01 T03210084  RH  023%=      5-min Rain = 0
KBI1 182020Z 17006KT 32/08 A2995 RMK A01 T03180083  RH  023%=      5-min Rain = 0
KBI1 182021Z 26007KT 32/08 A2995 RMK A01 T03190084  RH  023%=      5-min Rain = 0
KBI1 182022Z 26007KT 32/08 A2995 RMK A01 T03210084  RH  023%=      5-min Rain = 0
KBI1 182023Z 27005KT 32/08 A2995 RMK A01 T03200082  RH  023%=      5-min Rain = 0
KBI1 182024Z 28006KT 32/08 A2995 RMK A01 T03200083  RH  023%=      5-min Rain = 0
KBI1 182025Z 29005KT 32/08 A2995 RMK A01 T03200082  RH  023%=      5-min Rain = 0
KBI1 182026Z 27006KT 32/08 A2995 RMK A01 T03210082  RH  023%=      5-min Rain = 0
KBI1 182027Z 24006KT 32/08 A2995 RMK A01 T03230084  RH  023%=      5-min Rain = 0
KBI1 182028Z 24006KT 32/08 A2995 RMK A01 T03230084  RH  023%=      5-min Rain = 0
KBI1 182029Z 24005KT 32/08 A2995 RMK A01 T03210081  RH  023%=      5-min Rain = 0
KBI1 182030Z 22004KT 32/08 A2995 RMK A01 T03210081  RH  023%=      5-min Rain = 0
KBI1 182031Z 21005KT 32/08 A2995 RMK A01 T03220083  RH  023%=      5-min Rain = 0
KBI1 182032Z 22005KT 32/08 A2995 RMK A01 T03200083  RH  023%=      5-min Rain = 0
KBI1 182033Z 25004KT 32/08 A2995 RMK A01 T03210084  RH  023%=      5-min Rain = 0
KBI1 182034Z 24002KT 32/08 A2995 RMK A01 T03200082  RH  023%=      5-min Rain = 0
KBI1 182035Z 28002KT 32/09 A2995 RMK A01 T03200085  RH  023%=      5-min Rain = 0
KBI1 182036Z 27007KT 32/09 A2995 RMK A01 T03240086  RH  023%=      5-min Rain = 0
KBI1 182037Z 26008KT 33/09 A2995 RMK A01 T03250085  RH  023%=      5-min Rain = 0
KBI1 182038Z 27005KT 32/08 A2995 RMK A01 T03230082  RH  022%=      5-min Rain = 0
KBI1 182039Z 30004KT 32/08 A2994 RMK A01 T03210083  RH  023%=      5-min Rain = 0
KBI1 182040Z 26004KT 32/09 A2995 RMK A01 T03210086  RH  023%=      5-min Rain = 0
KBI1 182041Z 21005KT 32/09 A2995 RMK A01 T03220085  RH  023%=      5-min Rain = 0
KBI1 182042Z 22007KT 32/09 A2994 RMK A01 T03220085  RH  023%=      5-min Rain = 0
KBI1 182043Z 22008KT 32/09 A2994 RMK A01 T03240087  RH  023%=      5-min Rain = 0
KBI1 182044Z 22007KT 32/08 A2994 RMK A01 T03240084  RH  023%=      5-min Rain = 0
KBI1 182045Z 22006KT 32/09 A2995 RMK A01 T03210085  RH  023%=      5-min Rain = 0
KBI1 182046Z 21004KT 32/08 A2995 RMK A01 T03210084  RH  023%=      5-min Rain = 0
KBI1 182047Z 21002KT 32/08 A2994 RMK A01 T03210083  RH  023%=      5-min Rain = 0
KBI1 182048Z 22003KT 32/08 A2994 RMK A01 T03220084  RH  023%=      5-min Rain = 0
KBI1 182049Z 24003KT 32/09 A2994 RMK A01 T03230085  RH  023%=      5-min Rain = 0
KBI1 182050Z 26005KT 32/09 A2994 RMK A01 T03230085  RH  023%=      5-min Rain = 0
KBI1 182051Z 26003KT 32/09 A2994 RMK A01 T03230087  RH  023%=      5-min Rain = 0
KBI1 182052Z 24002KT 32/09 A2994 RMK A01 T03240085  RH  023%=      5-min Rain = 0
KBI1 182053Z 21002KT 32/08 A2994 RMK A01 T03240083  RH  022%=      5-min Rain = 0
KBI1 182054Z 18002KT 32/08 A2994 RMK A01 T03230082  RH  022%=      5-min Rain = 0
KBI1 182055Z 19007KT 33/09 A2994 RMK A01 T03250088  RH  023%=      5-min Rain = 0
KBI1 182056Z 19008KT 33/09 A2994 RMK A01 T03270089  RH  023%=      5-min Rain = 0
KBI1 182057Z 21007KT 33/09 A2994 RMK A01 T03250088  RH  023%=      5-min Rain = 0
KBI1 182058Z 22005KT 32/09 A2994 RMK A01 T03230087  RH  023%=      5-min Rain = 0
KBI1 182059Z 22004KT 32/09 A2994 RMK A01 T03230087  RH  023%=      5-min Rain = 0
KBI1 182100Z 24003KT 32/09 A2994 RMK A01 T03220087  RH  023%=      5-min Rain = 0
KBI1 182101Z 29002KT 32/09 A2994 RMK A01 T03220085  RH  023%=      5-min Rain = 0
KBI1 182102Z 18003KT 32/09 A2994 RMK A01 T03210087  RH  024%=      5-min Rain = 0
KBI1 182103Z 14003KT 32/09 A2994 RMK A01 T03210087  RH  023%=      5-min Rain = 0
KBI1 182104Z 20004KT 32/09 A2994 RMK A01 T03230088  RH  023%=      5-min Rain = 0
KBI1 182105Z 22002KT 32/09 A2994 RMK A01 T03240088  RH  023%=      5-min Rain = 0
KBI1 182106Z 24002KT 32/09 A2994 RMK A01 T03240088  RH  023%=      5-min Rain = 0
KBI1 182107Z 20004KT 33/09 A2994 RMK A01 T03260089  RH  023%=      5-min Rain = 0
KBI1 182108Z 18006G11KT 33/09 A2994 RMK A01 T03260089  RH  023%=      5-min Rain = 0
KBI1 182109Z 23007KT 33/08 A2994 RMK A01 T03270079  RH  021%=      5-min Rain = 0
KBI1 182110Z 24006KT 33/08 A2994 RMK A01 T03260075  RH  021%=      5-min Rain = 0
KBI1 182111Z 24005KT 33/07 A2994 RMK A01 T03250073  RH  021%=      5-min Rain = 0
KBI1 182112Z 24005KT 32/07 A2994 RMK A01 T03240072  RH  021%=      5-min Rain = 0
KBI1 182113Z 22004KT 32/07 A2994 RMK A01 T03240074  RH  021%=      5-min Rain = 0
KBI1 182114Z 20004KT 33/07 A2994 RMK A01 T03250073  RH  021%=      5-min Rain = 0
KBI1 182115Z 20004KT 33/07 A2994 RMK A01 T03250072  RH  021%=      5-min Rain = 0
KBI1 182116Z 21004KT 33/08 A2994 RMK A01 T03260077  RH  021%=      5-min Rain = 0
KBI1 182117Z 20003KT 33/08 A2994 RMK A01 T03260078  RH  021%=      5-min Rain = 0
KBI1 182118Z 21004KT 33/08 A2994 RMK A01 T03270075  RH  021%=      5-min Rain = 0
KBI1 182119Z 19003KT 33/08 A2994 RMK A01 T03260076  RH  021%=      5-min Rain = 0
KBI1 182120Z 22003KT 33/08 A2994 RMK A01 T03280077  RH  021%=      5-min Rain = 0
KBI1 182121Z 26001KT 33/08 A2994 RMK A01 T03290076  RH  021%=      5-min Rain = 0
KBI1 182122Z 33003KT 33/07 A2994 RMK A01 T03260073  RH  021%=      5-min Rain = 0
KBI1 182123Z 28001KT 33/08 A2994 RMK A01 T03250075  RH  021%=      5-min Rain = 0
KBI1 182124Z 25004KT 33/08 A2994 RMK A01 T03260078  RH  021%=      5-min Rain = 0
KBI1 182125Z 26003KT 33/07 A2994 RMK A01 T03280074  RH  021%=      5-min Rain = 0
KBI1 182126Z 20006KT 33/08 A2994 RMK A01 T03290078  RH  021%=      5-min Rain = 0
KBI1 182127Z 23006KT 33/08 A2994 RMK A01 T03290078  RH  021%=      5-min Rain = 0
KBI1 182128Z 20007KT 33/08 A2994 RMK A01 T03270077  RH  021%=      5-min Rain = 0
KBI1 182129Z 23007KT 33/08 A2994 RMK A01 T03270079  RH  022%=      5-min Rain = 0
KBI1 182130Z 25005KT 33/08 A2994 RMK A01 T03290076  RH  021%=      5-min Rain = 0
KBI1 182131Z 23006KT 33/08 A2994 RMK A01 T03280076  RH  021%=      5-min Rain = 0
KBI1 182132Z 23004KT 33/08 A2994 RMK A01 T03260077  RH  021%=      5-min Rain = 0
KBI1 182133Z 22004KT 33/08 A2994 RMK A01 T03270077  RH  021%=      5-min Rain = 0
KBI1 182134Z 25004KT 33/08 A2994 RMK A01 T03260076  RH  021%=      5-min Rain = 0
KBI1 182135Z 27004KT 33/08 A2994 RMK A01 T03270076  RH  021%=      5-min Rain = 0
KBI1 182136Z 23007KT 33/08 A2994 RMK A01 T03260078  RH  021%=      5-min Rain = 0
KBI1 182137Z 23007KT 33/08 A2994 RMK A01 T03270075  RH  021%=      5-min Rain = 0
KBI1 182138Z 23004KT 33/07 A2994 RMK A01 T03250073  RH  021%=      5-min Rain = 0
KBI1 182139Z 24001KT 32/07 A2994 RMK A01 T03240073  RH  021%=      5-min Rain = 0
KBI1 182140Z 26005KT 33/08 A2994 RMK A01 T03260075  RH  021%=      5-min Rain = 0
KBI1 182141Z 25005KT 33/08 A2994 RMK A01 T03270078  RH  021%=      5-min Rain = 0
KBI1 182142Z 25007KT 33/08 A2994 RMK A01 T03280077  RH  021%=      5-min Rain = 0
KBI1 182143Z 23005KT 33/08 A2994 RMK A01 T03270077  RH  021%=      5-min Rain = 0
KBI1 182144Z 22003KT 33/08 A2994 RMK A01 T03260076  RH  021%=      5-min Rain = 0
KBI1 182145Z 22003KT 33/08 A2994 RMK A01 T03270078  RH  021%=      5-min Rain = 0
KBI1 182146Z 19004KT 33/08 A2994 RMK A01 T03280076  RH  021%=      5-min Rain = 0
KBI1 182147Z 15003KT 33/08 A2994 RMK A01 T03270076  RH  021%=      5-min Rain = 0
KBI1 182148Z 26004KT 33/08 A2994 RMK A01 T03280077  RH  021%=      5-min Rain = 0
KBI1 182149Z 24006KT 33/08 A2994 RMK A01 T03290075  RH  021%=      5-min Rain = 0
KBI1 182150Z 23004KT 33/07 A2994 RMK A01 T03270070  RH  020%=      5-min Rain = 0
KBI1 182151Z 24002KT 33/07 A2994 RMK A01 T03250066  RH  020%=      5-min Rain = 0
KBI1 182152Z 19000KT 32/07 A2994 RMK A01 T03240067  RH  020%=      5-min Rain = 0
KBI1 182153Z 19002KT 33/07 A2994 RMK A01 T03270074  RH  021%=      5-min Rain = 0
KBI1 182154Z 16002KT 33/07 A2994 RMK A01 T03300074  RH  021%=      5-min Rain = 0
KBI1 182155Z 16004KT 33/08 A2994 RMK A01 T03310077  RH  021%=      5-min Rain = 0
KBI1 182156Z 19007KT 33/07 A2994 RMK A01 T03320073  RH  020%=      5-min Rain = 0
KBI1 182157Z 19008KT 33/07 A2994 RMK A01 T03310066  RH  019%=      5-min Rain = 0
KBI1 182158Z 20008KT 33/07 A2994 RMK A01 T03280066  RH  019%=      5-min Rain = 0
KBI1 182159Z 20006KT 33/07 A2994 RMK A01 T03270067  RH  020%=      5-min Rain = 0
KBI1 182200Z 20005KT 33/07 A2994 RMK A01 T03270067  RH  020%=      5-min Rain = 0
KBI1 182201Z 18006KT 33/07 A2994 RMK A01 T03280068  RH  020%=      5-min Rain = 0
KBI1 182202Z 19007KT 33/07 A2994 RMK A01 T03270067  RH  020%=      5-min Rain = 0
KBI1 182203Z 19007KT 33/06 A2994 RMK A01 T03280064  RH  019%=      5-min Rain = 0
KBI1 182204Z 19006KT 33/07 A2994 RMK A01 T03270065  RH  020%=      5-min Rain = 0
KBI1 182205Z 20006KT 33/07 A2994 RMK A01 T03270065  RH  020%=      5-min Rain = 0
KBI1 182206Z 23006KT 33/07 A2994 RMK A01 T03270066  RH  020%=      5-min Rain = 0
KBI1 182207Z 22005KT 33/06 A2994 RMK A01 T03270061  RH  019%=      5-min Rain = 0
KBI1 182208Z 23005KT 33/06 A2994 RMK A01 T03260063  RH  019%=      5-min Rain = 0
KBI1 182209Z 25004KT 33/06 A2994 RMK A01 T03260061  RH  019%=      5-min Rain = 0
KBI1 182210Z 25002KT 33/06 A2994 RMK A01 T03250061  RH  019%=      5-min Rain = 0
KBI1 182211Z 19004KT 33/07 A2994 RMK A01 T03260065  RH  020%=      5-min Rain = 0
KBI1 182212Z 17003KT 33/07 A2994 RMK A01 T03260068  RH  020%=      5-min Rain = 0
KBI1 182213Z 18003KT 33/07 A2994 RMK A01 T03270069  RH  020%=      5-min Rain = 0
KBI1 182214Z 22005KT 33/07 A2994 RMK A01 T03290068  RH  020%=      5-min Rain = 0
KBI1 182215Z 24005KT 33/06 A2994 RMK A01 T03290064  RH  019%=      5-min Rain = 0
KBI1 182216Z 23005KT 33/06 A2994 RMK A01 T03300063  RH  019%=      5-min Rain = 0
KBI1 182217Z 23008KT 33/06 A2994 RMK A01 T03300063  RH  019%=      5-min Rain = 0
KBI1 182218Z 22006KT 33/06 A2994 RMK A01 T03300060  RH  019%=      5-min Rain = 0
KBI1 182219Z 20005KT 33/06 A2994 RMK A01 T03290061  RH  019%=      5-min Rain = 0
KBI1 182220Z 21005KT 33/06 A2994 RMK A01 T03290059  RH  019%=      5-min Rain = 0
KBI1 182221Z 22005KT 33/06 A2994 RMK A01 T03270060  RH  019%=      5-min Rain = 0
KBI1 182222Z 22004KT 33/06 A2994 RMK A01 T03270060  RH  019%=      5-min Rain = 0
KBI1 182223Z 20006KT 33/06 A2994 RMK A01 T03270059  RH  019%=      5-min Rain = 0
KBI1 182224Z 20004KT 33/06 A2994 RMK A01 T03270061  RH  019%=      5-min Rain = 0
KBI1 182225Z 21004KT 33/06 A2994 RMK A01 T03270060  RH  019%=      5-min Rain = 0
KBI1 182226Z 20004KT 33/06 A2994 RMK A01 T03280062  RH  019%=      5-min Rain = 0
KBI1 182227Z 21004KT 33/06 A2994 RMK A01 T03270059  RH  019%=      5-min Rain = 0
KBI1 182228Z 19002KT 33/06 A2994 RMK A01 T03270059  RH  019%=      5-min Rain = 0
KBI1 182229Z 17002KT 33/06 A2994 RMK A01 T03260059  RH  019%=      5-min Rain = 0
KBI1 182230Z 15002KT 33/06 A2994 RMK A01 T03260059  RH  019%=      5-min Rain = 0
KBI1 182231Z 15002KT 33/06 A2994 RMK A01 T03270060  RH  019%=      5-min Rain = 0
KBI1 182232Z 12001KT 33/06 A2994 RMK A01 T03280059  RH  019%=      5-min Rain = 0
KBI1 182233Z 00000KT 33/06 A2994 RMK A01 T03280060  RH  019%=      5-min Rain = 0
KBI1 182234Z 05000KT 33/06 A2994 RMK A01 T03280061  RH  019%=      5-min Rain = 0
KBI1 182235Z 16001KT 33/06 A2994 RMK A01 T03290060  RH  019%=      5-min Rain = 0
KBI1 182236Z 15003KT 33/06 A2994 RMK A01 T03300062  RH  019%=      5-min Rain = 0
KBI1 182237Z 17004KT 33/06 A2994 RMK A01 T03300063  RH  019%=      5-min Rain = 0
KBI1 182238Z 15004KT 33/06 A2994 RMK A01 T03300063  RH  019%=      5-min Rain = 0
KBI1 182239Z 17004KT 33/06 A2994 RMK A01 T03290062  RH  019%=      5-min Rain = 0
KBI1 182240Z 17005KT 33/06 A2994 RMK A01 T03280064  RH  019%=      5-min Rain = 0
KBI1 182241Z 17006KT 33/07 A2994 RMK A01 T03280066  RH  020%=      5-min Rain = 0
KBI1 182242Z 16005KT 33/06 A2994 RMK A01 T03270063  RH  019%=      5-min Rain = 0
KBI1 182243Z 17004KT 33/06 A2994 RMK A01 T03260064  RH  020%=      5-min Rain = 0
KBI1 182244Z 18004KT 33/07 A2994 RMK A01 T03250065  RH  020%=      5-min Rain = 0
KBI1 182245Z 20003KT 33/07 A2994 RMK A01 T03250066  RH  020%=      5-min Rain = 0
KBI1 182246Z 19003KT 33/06 A2994 RMK A01 T03250064  RH  020%=      5-min Rain = 0
KBI1 182247Z 20004KT 33/07 A2994 RMK A01 T03260065  RH  020%=      5-min Rain = 0
KBI1 182248Z 20003KT 33/07 A2994 RMK A01 T03260065  RH  020%=      5-min Rain = 0
KBI1 182249Z 20005KT 33/07 A2994 RMK A01 T03250066  RH  020%=      5-min Rain = 0
KBI1 182250Z 21005KT 33/07 A2994 RMK A01 T03250067  RH  020%=      5-min Rain = 0
KBI1 182251Z 20005KT 33/07 A2993 RMK A01 T03250068  RH  020%=      5-min Rain = 0
KBI1 182252Z 20004KT 32/07 A2993 RMK A01 T03240068  RH  020%=      5-min Rain = 0
KBI1 182253Z 20002KT 32/07 A2993 RMK A01 T03240066  RH  020%=      5-min Rain = 0
KBI1 182254Z 21005KT 32/07 A2993 RMK A01 T03240067  RH  020%=      5-min Rain = 0
KBI1 182255Z 19004KT 32/07 A2993 RMK A01 T03240068  RH  020%=      5-min Rain = 0
KBI1 182256Z 17003KT 32/07 A2993 RMK A01 T03240067  RH  020%=      5-min Rain = 0
KBI1 182257Z 18004KT 32/07 A2993 RMK A01 T03230068  RH  020%=      5-min Rain = 0
KBI1 182258Z 18005KT 32/07 A2993 RMK A01 T03230069  RH  021%=      5-min Rain = 0
KBI1 182259Z 18005KT 32/07 A2993 RMK A01 T03230069  RH  021%=      5-min Rain = 0
KBI1 182300Z 18005KT 32/07 A2993 RMK A01 T03230069  RH  021%=      5-min Rain = 0
KBI1 182301Z 17004KT 32/07 A2994 RMK A01 T03220068  RH  021%=      5-min Rain = 0
KBI1 182302Z 18004KT 32/07 A2994 RMK A01 T03220068  RH  020%=      5-min Rain = 0
KBI1 182303Z 18005KT 32/07 A2994 RMK A01 T03220068  RH  021%=      5-min Rain = 0
KBI1 182304Z 17005KT 32/07 A2994 RMK A01 T03210067  RH  021%=      5-min Rain = 0
KBI1 182305Z 17005KT 32/07 A2994 RMK A01 T03210067  RH  021%=      5-min Rain = 0
KBI1 182306Z 16004KT 32/07 A2994 RMK A01 T03210068  RH  021%=      5-min Rain = 0
KBI1 182307Z 17003KT 32/07 A2994 RMK A01 T03210067  RH  020%=      5-min Rain = 0
KBI1 182308Z 15002KT 32/07 A2994 RMK A01 T03210065  RH  020%=      5-min Rain = 0
KBI1 182309Z 15002KT 32/07 A2994 RMK A01 T03210067  RH  021%=      5-min Rain = 0
KBI1 182310Z 15003KT 32/07 A2994 RMK A01 T03210067  RH  021%=      5-min Rain = 0
KBI1 182311Z 12003KT 32/07 A2993 RMK A01 T03200068  RH  021%=      5-min Rain = 0
KBI1 182312Z 14003KT 32/07 A2993 RMK A01 T03200070  RH  021%=      5-min Rain = 0
KBI1 182313Z 17005KT 32/07 A2993 RMK A01 T03200069  RH  021%=      5-min Rain = 0
KBI1 182314Z 17005KT 32/07 A2993 RMK A01 T03190069  RH  021%=      5-min Rain = 0
KBI1 182315Z 19004KT 32/07 A2993 RMK A01 T03180069  RH  021%=      5-min Rain = 0
KBI1 182316Z 18004KT 32/07 A2993 RMK A01 T03180070  RH  021%=      5-min Rain = 0
KBI1 182317Z 17004KT 32/07 A2993 RMK A01 T03170071  RH  022%=      5-min Rain = 0
KBI1 182318Z 17004KT 32/07 A2993 RMK A01 T03170070  RH  021%=      5-min Rain = 0
KBI1 182319Z 16003KT 32/07 A2993 RMK A01 T03160069  RH  021%=      5-min Rain = 0
KBI1 182320Z 17002KT 32/07 A2993 RMK A01 T03160072  RH  022%=      5-min Rain = 0
KBI1 182321Z 17004KT 32/07 A2994 RMK A01 T03160072  RH  022%=      5-min Rain = 0
KBI1 182322Z 17004KT 32/07 A2993 RMK A01 T03160072  RH  022%=      5-min Rain = 0
KBI1 182323Z 16003KT 32/07 A2993 RMK A01 T03150068  RH  021%=      5-min Rain = 0
KBI1 182324Z 17003KT 32/07 A2993 RMK A01 T03150067  RH  021%=      5-min Rain = 0
KBI1 182325Z 17003KT 32/07 A2994 RMK A01 T03150067  RH  021%=      5-min Rain = 0
KBI1 182326Z 17003KT 32/07 A2993 RMK A01 T03150069  RH  021%=      5-min Rain = 0
KBI1 182327Z 17003KT 31/07 A2994 RMK A01 T03140068  RH  022%=      5-min Rain = 0
KBI1 182328Z 17003KT 31/07 A2994 RMK A01 T03140070  RH  022%=      5-min Rain = 0
KBI1 182329Z 16003KT 31/07 A2994 RMK A01 T03130068  RH  022%=      5-min Rain = 0
KBI1 182330Z 17003KT 31/07 A2994 RMK A01 T03120068  RH  022%=      5-min Rain = 0
KBI1 182331Z 17002KT 31/07 A2994 RMK A01 T03120069  RH  022%=      5-min Rain = 0
KBI1 182332Z 16002KT 31/07 A2994 RMK A01 T03120070  RH  022%=      5-min Rain = 0
KBI1 182333Z 16002KT 31/07 A2994 RMK A01 T03120070  RH  022%=      5-min Rain = 0
KBI1 182334Z 16002KT 31/07 A2994 RMK A01 T03110071  RH  022%=      5-min Rain = 0
KBI1 182335Z 14002KT 31/07 A2994 RMK A01 T03110071  RH  022%=      5-min Rain = 0
KBI1 182336Z 16002KT 31/07 A2994 RMK A01 T03110072  RH  022%=      5-min Rain = 0
KBI1 182337Z 16002KT 31/07 A2994 RMK A01 T03110072  RH  023%=      5-min Rain = 0
KBI1 182338Z 16002KT 31/07 A2994 RMK A01 T03100073  RH  023%=      5-min Rain = 0
KBI1 182339Z 16002KT 31/07 A2994 RMK A01 T03090073  RH  023%=      5-min Rain = 0
KBI1 182340Z 17002KT 31/07 A2994 RMK A01 T03080073  RH  023%=      5-min Rain = 0
KBI1 182341Z 17002KT 31/07 A2994 RMK A01 T03070074  RH  023%=      5-min Rain = 0
KBI1 182342Z 16003KT 31/07 A2994 RMK A01 T03060074  RH  023%=      5-min Rain = 0
KBI1 182343Z 16003KT 31/07 A2994 RMK A01 T03050074  RH  024%=      5-min Rain = 0
KBI1 182344Z 18003KT 30/08 A2994 RMK A01 T03040076  RH  024%=      5-min Rain = 0
KBI1 182345Z 17003KT 30/08 A2994 RMK A01 T03030075  RH  024%=      5-min Rain = 0
KBI1 182346Z 17003KT 30/07 A2994 RMK A01 T03010073  RH  024%=      5-min Rain = 0
KBI1 182347Z 17003KT 30/08 A2994 RMK A01 T03000075  RH  024%=      5-min Rain = 0
KBI1 182348Z 17003KT 30/07 A2994 RMK A01 T02980074  RH  025%=      5-min Rain = 0
KBI1 182349Z 17004KT 30/07 A2994 RMK A01 T02960074  RH  025%=      5-min Rain = 0
KBI1 182350Z 17004KT 30/07 A2994 RMK A01 T02960073  RH  025%=      5-min Rain = 0
KBI1 182351Z 17003KT 30/07 A2994 RMK A01 T02950074  RH  025%=      5-min Rain = 0
KBI1 182352Z 17004KT 29/07 A2994 RMK A01 T02930073  RH  025%=      5-min Rain = 0
KBI1 182353Z 17004KT 29/07 A2994 RMK A01 T02930074  RH  025%=      5-min Rain = 0
KBI1 182354Z 17004KT 29/07 A2994 RMK A01 T02920074  RH  025%=      5-min Rain = 0
KBI1 182355Z 17004KT 29/08 A2994 RMK A01 T02930075  RH  026%=      5-min Rain = 0
KBI1 182356Z 17004KT 29/07 A2994 RMK A01 T02920074  RH  026%=      5-min Rain = 0
KBI1 182357Z 16005KT 29/07 A2994 RMK A01 T02910074  RH  026%=      5-min Rain = 0
KBI1 182358Z 16004KT 29/07 A2994 RMK A01 T02910074  RH  026%=      5-min Rain = 0
KBI1 182359Z 16004KT 29/08 A2994 RMK A01 T02900075  RH  026%=      5-min Rain = 0
KBI1 190000Z 15004KT 29/08 A2994 RMK A01 T02890075  RH  026%=      5-min Rain = 0
KBI1 190001Z 15004KT 29/08 A2994 RMK A01 T02890076  RH  026%=      5-min Rain = 0
KBI1 190002Z 15003KT 29/08 A2994 RMK A01 T02890076  RH  026%=      5-min Rain = 0
KBI1 190003Z 14004KT 29/08 A2994 RMK A01 T02890077  RH  026%=      5-min Rain = 0
KBI1 190004Z 14004KT 29/08 A2994 RMK A01 T02890077  RH  026%=      5-min Rain = 0
KBI1 190005Z 15004KT 29/08 A2994 RMK A01 T02890078  RH  027%=      5-min Rain = 0
KBI1 190006Z 15004KT 29/08 A2994 RMK A01 T02890079  RH  027%=      5-min Rain = 0
KBI1 190007Z 15004KT 29/08 A2994 RMK A01 T02890080  RH  027%=      5-min Rain = 0
KBI1 190008Z 15004KT 29/08 A2994 RMK A01 T02890081  RH  027%=      5-min Rain = 0
KBI1 190009Z 15004KT 29/08 A2994 RMK A01 T02890081  RH  027%=      5-min Rain = 0
KBI1 190010Z 15003KT 29/08 A2994 RMK A01 T02880081  RH  027%=      5-min Rain = 0
KBI1 190011Z 15003KT 29/08 A2995 RMK A01 T02880082  RH  027%=      5-min Rain = 0
KBI1 190012Z 15004KT 29/08 A2995 RMK A01 T02870082  RH  028%=      5-min Rain = 0
KBI1 190013Z 15004KT 29/08 A2995 RMK A01 T02870082  RH  028%=      5-min Rain = 0
KBI1 190014Z 15004KT 29/08 A2995 RMK A01 T02860083  RH  028%=      5-min Rain = 0
KBI1 190015Z 15004KT 29/08 A2995 RMK A01 T02860083  RH  028%=      5-min Rain = 0
KBI1 190016Z 15004KT 29/08 A2995 RMK A01 T02850083  RH  028%=      5-min Rain = 0
KBI1 190017Z 14004KT 28/08 A2995 RMK A01 T02840084  RH  028%=      5-min Rain = 0
KBI1 190018Z 14004KT 28/09 A2995 RMK A01 T02840085  RH  029%=      5-min Rain = 0
KBI1 190019Z 14004KT 28/09 A2995 RMK A01 T02830085  RH  029%=      5-min Rain = 0
KBI1 190020Z 14004KT 28/09 A2995 RMK A01 T02830086  RH  029%=      5-min Rain = 0
KBI1 190021Z 14004KT 28/09 A2995 RMK A01 T02830088  RH  029%=      5-min Rain = 0
KBI1 190022Z 15004KT 28/09 A2995 RMK A01 T02820089  RH  030%=      5-min Rain = 0
KBI1 190023Z 14004KT 28/09 A2995 RMK A01 T02820089  RH  030%=      5-min Rain = 0
KBI1 190024Z 15003KT 28/09 A2995 RMK A01 T02810090  RH  030%=      5-min Rain = 0
KBI1 190025Z 15005KT 28/09 A2995 RMK A01 T02800091  RH  031%=      5-min Rain = 0
KBI1 190026Z 15005KT 28/09 A2995 RMK A01 T02790093  RH  031%=      5-min Rain = 0
KBI1 190027Z 15005KT 28/09 A2995 RMK A01 T02780093  RH  031%=      5-min Rain = 0
KBI1 190028Z 15005KT 28/09 A2995 RMK A01 T02770094  RH  032%=      5-min Rain = 0
KBI1 190029Z 15005KT 28/10 A2995 RMK A01 T02760095  RH  032%=      5-min Rain = 0
KBI1 190030Z 15004KT 28/10 A2995 RMK A01 T02750095  RH  032%=      5-min Rain = 0
KBI1 190031Z 14004KT 28/10 A2995 RMK A01 T02750096  RH  033%=      5-min Rain = 0
KBI1 190032Z 14004KT 27/10 A2995 RMK A01 T02740097  RH  033%=      5-min Rain = 0
KBI1 190033Z 14003KT 27/10 A2995 RMK A01 T02740097  RH  033%=      5-min Rain = 0
KBI1 190034Z 14003KT 27/10 A2995 RMK A01 T02730097  RH  033%=      5-min Rain = 0
KBI1 190035Z 13005KT 27/10 A2995 RMK A01 T02720098  RH  033%=      5-min Rain = 0
KBI1 190036Z 14004KT 27/10 A2995 RMK A01 T02710098  RH  034%=      5-min Rain = 0
KBI1 190037Z 14004KT 27/10 A2995 RMK A01 T02710098  RH  034%=      5-min Rain = 0
KBI1 190038Z 13005KT 27/10 A2995 RMK A01 T02710098  RH  034%=      5-min Rain = 0
KBI1 190039Z 13004KT 27/10 A2996 RMK A01 T02700098  RH  034%=      5-min Rain = 0
KBI1 190040Z 13004KT 27/10 A2996 RMK A01 T02690098  RH  034%=      5-min Rain = 0
KBI1 190041Z 12003KT 27/10 A2996 RMK A01 T02690099  RH  034%=      5-min Rain = 0
KBI1 190042Z 12004KT 27/10 A2996 RMK A01 T02680099  RH  034%=      5-min Rain = 0
KBI1 190043Z 08001KT 27/10 A2996 RMK A01 T02680099  RH  034%=      5-min Rain = 0
KBI1 190044Z 02002KT 27/10 A2996 RMK A01 T02670098  RH  034%=      5-min Rain = 0
KBI1 190045Z 35005KT 27/10 A2996 RMK A01 T02660097  RH  034%=      5-min Rain = 0
KBI1 190046Z 36007KT 26/10 A2996 RMK A01 T02630095  RH  035%=      5-min Rain = 0
KBI1 190047Z 00008KT 26/09 A2996 RMK A01 T02600091  RH  034%=      5-min Rain = 0
KBI1 190048Z 01007KT 26/09 A2997 RMK A01 T02570087  RH  034%=      5-min Rain = 0
KBI1 190049Z 01006KT 26/09 A2997 RMK A01 T02560085  RH  034%=      5-min Rain = 0
KBI1 190050Z 01007KT 26/08 A2997 RMK A01 T02570084  RH  033%=      5-min Rain = 0
KBI1 190051Z 01007KT 26/08 A2997 RMK A01 T02590083  RH  033%=      5-min Rain = 0
KBI1 190052Z 01007KT 26/08 A2997 RMK A01 T02590082  RH  032%=      5-min Rain = 0
KBI1 190053Z 01008KT 26/08 A2997 RMK A01 T02590082  RH  032%=      5-min Rain = 0
KBI1 190054Z 01005KT 26/08 A2997 RMK A01 T02590081  RH  032%=      5-min Rain = 0
KBI1 190055Z 03006KT 26/08 A2997 RMK A01 T02600082  RH  032%=      5-min Rain = 0
KBI1 190056Z 01011KT 26/08 A2997 RMK A01 T02600083  RH  033%=      5-min Rain = 0
KBI1 190057Z 01012KT 26/08 A2997 RMK A01 T02620083  RH  032%=      5-min Rain = 0
KBI1 190058Z 01009KT 27/09 A2997 RMK A01 T02670086  RH  032%=      5-min Rain = 0
KBI1 190059Z 01008KT 27/09 A2997 RMK A01 T02680086  RH  032%=      5-min Rain = 0
KBI1 190100Z 01007KT 27/09 A2997 RMK A01 T02670088  RH  032%=      5-min Rain = 0
KBI1 190101Z 04005KT 27/09 A2997 RMK A01 T02670090  RH  033%=      5-min Rain = 0
KBI1 190102Z 04005KT 27/09 A2997 RMK A01 T02670090  RH  033%=      5-min Rain = 0
KBI1 190103Z 03005KT 27/09 A2997 RMK A01 T02700090  RH  032%=      5-min Rain = 0
KBI1 190104Z 03006KT 27/09 A2997 RMK A01 T02700090  RH  032%=      5-min Rain = 0
KBI1 190105Z 04006KT 27/09 A2998 RMK A01 T02700092  RH  033%=      5-min Rain = 0
KBI1 190106Z 04005KT 27/09 A2998 RMK A01 T02720093  RH  032%=      5-min Rain = 0
KBI1 190107Z 02005KT 27/09 A2998 RMK A01 T02740094  RH  032%=      5-min Rain = 0
KBI1 190108Z 03006KT 27/09 A2998 RMK A01 T02740092  RH  032%=      5-min Rain = 0
KBI1 190109Z 03008KT 27/10 A2998 RMK A01 T02730096  RH  033%=      5-min Rain = 0
KBI1 190110Z 02010KT 27/09 A2998 RMK A01 T02720090  RH  032%=      5-min Rain = 0
KBI1 190111Z 04008KT 27/09 A2998 RMK A01 T02690088  RH  032%=      5-min Rain = 0
KBI1 190112Z 03006KT 27/09 A2998 RMK A01 T02670087  RH  032%=      5-min Rain = 0
KBI1 190113Z 03006KT 26/09 A2998 RMK A01 T02640087  RH  033%=      5-min Rain = 0
KBI1 190114Z 04008KT 26/09 A2998 RMK A01 T02620087  RH  033%=      5-min Rain = 0
KBI1 190115Z 03008KT 26/09 A2998 RMK A01 T02600088  RH  034%=      5-min Rain = 0
KBI1 190116Z 04008KT 26/09 A2998 RMK A01 T02580088  RH  034%=      5-min Rain = 0
KBI1 190117Z 04010KT 26/09 A2998 RMK A01 T02570089  RH  034%=      5-min Rain = 0
KBI1 190118Z 03010KT 26/09 A2998 RMK A01 T02580090  RH  035%=      5-min Rain = 0
KBI1 190119Z 03009KT 26/09 A2998 RMK A01 T02560090  RH  035%=      5-min Rain = 0
KBI1 190120Z 04009KT 26/09 A2998 RMK A01 T02560090  RH  035%=      5-min Rain = 0
KBI1 190121Z 03009KT 25/09 A2999 RMK A01 T02540091  RH  036%=      5-min Rain = 0
KBI1 190122Z 04009KT 25/09 A2999 RMK A01 T02540091  RH  036%=      5-min Rain = 0
KBI1 190123Z 03007KT 25/09 A2999 RMK A01 T02530092  RH  036%=      5-min Rain = 0
KBI1 190124Z 03009KT 25/09 A2999 RMK A01 T02520092  RH  036%=      5-min Rain = 0
KBI1 190125Z 04010KT 25/09 A2999 RMK A01 T02510093  RH  037%=      5-min Rain = 0
KBI1 190126Z 03010KT 25/09 A2999 RMK A01 T02510094  RH  037%=      5-min Rain = 0
KBI1 190127Z 04010KT 25/10 A2999 RMK A01 T02510095  RH  037%=      5-min Rain = 0
KBI1 190128Z 04009KT 25/10 A2999 RMK A01 T02500095  RH  037%=      5-min Rain = 0
KBI1 190129Z 03009KT 25/10 A2999 RMK A01 T02500097  RH  038%=      5-min Rain = 0
KBI1 190130Z 04009KT 25/10 A2999 RMK A01 T02490097  RH  038%=      5-min Rain = 0
KBI1 190131Z 04010KT 25/10 A2999 RMK A01 T02490097  RH  038%=      5-min Rain = 0
KBI1 190132Z 04009KT 25/10 A2999 RMK A01 T02490098  RH  038%=      5-min Rain = 0
KBI1 190133Z 04009KT 25/10 A2999 RMK A01 T02480098  RH  039%=      5-min Rain = 0
KBI1 190134Z 05010KT 25/10 A2999 RMK A01 T02470098  RH  039%=      5-min Rain = 0
KBI1 190135Z 04009KT 25/10 A2999 RMK A01 T02470099  RH  039%=      5-min Rain = 0
KBI1 190136Z 04010G16KT 25/10 A2999 RMK A01 T02460099  RH  039%=      5-min Rain = 0
KBI1 190137Z 04011G16KT 25/10 A2999 RMK A01 T02450100  RH  040%=      5-min Rain = 0
KBI1 190138Z 04012G17KT 25/10 A2999 RMK A01 T02450100  RH  040%=      5-min Rain = 0
KBI1 190139Z 03010KT 25/10 A2999 RMK A01 T02450101  RH  040%=      5-min Rain = 0
KBI1 190140Z 04009KT 25/10 A30 RMK A01 T02450101  RH  040%=      5-min Rain = 0
KBI1 190141Z 04009KT 24/10 A30 RMK A01 T02430101  RH  040%=      5-min Rain = 0
KBI1 190142Z 05009KT 24/10 A30 RMK A01 T02430101  RH  041%=      5-min Rain = 0
KBI1 190143Z 04009KT 24/10 A30 RMK A01 T02420101  RH  041%=      5-min Rain = 0
KBI1 190144Z 03008KT 24/10 A30 RMK A01 T02420101  RH  041%=      5-min Rain = 0
KBI1 190145Z 03008G13KT 24/10 A30 RMK A01 T02410101  RH  041%=      5-min Rain = 0
KBI1 190146Z 04011KT 24/10 A30 RMK A01 T02390102  RH  042%=      5-min Rain = 0
KBI1 190147Z 04010KT 24/10 A30 RMK A01 T02370104  RH  043%=      5-min Rain = 0
KBI1 190148Z 03010KT 24/11 A30 RMK A01 T02350106  RH  044%=      5-min Rain = 0
KBI1 190149Z 03010KT 23/11 A30 RMK A01 T02320107  RH  045%=      5-min Rain = 0
KBI1 190150Z 03010KT 23/11 A30 RMK A01 T02310108  RH  046%=      5-min Rain = 0
KBI1 190151Z 03009KT 23/11 A30 RMK A01 T02290109  RH  047%=      5-min Rain = 0
KBI1 190152Z 03010KT 23/11 A30 RMK A01 T02270110  RH  047%=      5-min Rain = 0
KBI1 190153Z 02008KT 23/11 A3001 RMK A01 T02260110  RH  048%=      5-min Rain = 0
KBI1 190154Z 03008KT 23/11 A3001 RMK A01 T02250110  RH  048%=      5-min Rain = 0
KBI1 190155Z 04009G14KT 22/11 A3001 RMK A01 T02240111  RH  049%=      5-min Rain = 0
KBI1 190156Z 04008KT 22/11 A3001 RMK A01 T02230111  RH  049%=      5-min Rain = 0
KBI1 190157Z 04009KT 22/11 A3001 RMK A01 T02220111  RH  049%=      5-min Rain = 0
KBI1 190158Z 04009KT 22/11 A3001 RMK A01 T02210111  RH  050%=      5-min Rain = 0
KBI1 190159Z 05011KT 22/11 A3001 RMK A01 T02190111  RH  050%=      5-min Rain = 0
KBI1 190200Z 04010KT 22/11 A3001 RMK A01 T02190112  RH  051%=      5-min Rain = 0
KBI1 190201Z 04010KT 22/11 A3001 RMK A01 T02190112  RH  051%=      5-min Rain = 0
KBI1 190202Z 04009KT 22/11 A3001 RMK A01 T02180112  RH  051%=      5-min Rain = 0
KBI1 190203Z 04007KT 22/11 A3001 RMK A01 T02170112  RH  051%=      5-min Rain = 0
KBI1 190204Z 04008KT 22/11 A3001 RMK A01 T02160112  RH  051%=      5-min Rain = 0
KBI1 190205Z 04010KT 22/11 A3001 RMK A01 T02150112  RH  052%=      5-min Rain = 0
KBI1 190206Z 04008KT 22/11 A3001 RMK A01 T02150112  RH  052%=      5-min Rain = 0
KBI1 190207Z 04010KT 21/11 A3001 RMK A01 T02140112  RH  052%=      5-min Rain = 0
KBI1 190208Z 04010KT 21/11 A3001 RMK A01 T02140112  RH  052%=      5-min Rain = 0
KBI1 190209Z 04010KT 21/11 A3001 RMK A01 T02130112  RH  052%=      5-min Rain = 0
KBI1 190210Z 04009KT 21/11 A3001 RMK A01 T02120112  RH  053%=      5-min Rain = 0
KBI1 190211Z 04010KT 21/11 A3001 RMK A01 T02120112  RH  053%=      5-min Rain = 0
KBI1 190212Z 05008KT 21/11 A3001 RMK A01 T02110112  RH  053%=      5-min Rain = 0
KBI1 190213Z 04009KT 21/11 A3001 RMK A01 T02110112  RH  053%=      5-min Rain = 0
KBI1 190214Z 04008KT 21/11 A3001 RMK A01 T02100112  RH  053%=      5-min Rain = 0
KBI1 190215Z 05009KT 21/11 A3001 RMK A01 T02100111  RH  053%=      5-min Rain = 0
KBI1 190216Z 05009KT 21/11 A3001 RMK A01 T02090111  RH  054%=      5-min Rain = 0
KBI1 190217Z 05008KT 21/11 A3001 RMK A01 T02090111  RH  054%=      5-min Rain = 0
KBI1 190218Z 05008KT 21/11 A3001 RMK A01 T02090112  RH  054%=      5-min Rain = 0
KBI1 190219Z 05008KT 21/11 A3001 RMK A01 T02080111  RH  054%=      5-min Rain = 0
KBI1 190220Z 05008KT 21/11 A3001 RMK A01 T02070111  RH  054%=      5-min Rain = 0
KBI1 190221Z 05013KT 21/11 A3001 RMK A01 T02060111  RH  054%=      5-min Rain = 0
KBI1 190222Z 04013KT 21/11 A3001 RMK A01 T02060111  RH  054%=      5-min Rain = 0
KBI1 190223Z 04009KT 21/11 A3001 RMK A01 T02060111  RH  054%=      5-min Rain = 0
KBI1 190224Z 04011KT 21/11 A3001 RMK A01 T02050110  RH  055%=      5-min Rain = 0
KBI1 190225Z 04014KT 20/11 A3001 RMK A01 T02040110  RH  055%=      5-min Rain = 0
KBI1 190226Z 05012KT 20/11 A3001 RMK A01 T02030110  RH  055%=      5-min Rain = 0
KBI1 190227Z 05010G15KT 20/11 A3001 RMK A01 T02030110  RH  055%=      5-min Rain = 0
KBI1 190228Z 05011KT 20/11 A3002 RMK A01 T02030110  RH  055%=      5-min Rain = 0
KBI1 190229Z 05011KT 20/11 A3002 RMK A01 T02020110  RH  055%=      5-min Rain = 0
KBI1 190230Z 05013KT 20/11 A3002 RMK A01 T02020110  RH  055%=      5-min Rain = 0
KBI1 190231Z 05009G14KT 20/11 A3002 RMK A01 T02020110  RH  055%=      5-min Rain = 0
KBI1 190232Z 05009KT 20/11 A3002 RMK A01 T02010110  RH  055%=      5-min Rain = 0
KBI1 190233Z 05009KT 20/11 A3002 RMK A01 T02010109  RH  056%=      5-min Rain = 0
KBI1 190234Z 05008KT 20/11 A3002 RMK A01 T02000109  RH  056%=      5-min Rain = 0
KBI1 190235Z 05010KT 20/11 A3002 RMK A01 T02000109  RH  056%=      5-min Rain = 0
KBI1 190236Z 05009KT 20/11 A3002 RMK A01 T02000109  RH  056%=      5-min Rain = 0
KBI1 190237Z 05007KT 20/11 A3002 RMK A01 T02000109  RH  056%=      5-min Rain = 0
KBI1 190238Z 05007KT 20/11 A3002 RMK A01 T02000110  RH  056%=      5-min Rain = 0
KBI1 190239Z 06009KT 20/11 A3002 RMK A01 T01990109  RH  056%=      5-min Rain = 0
KBI1 190240Z 05010KT 20/11 A3002 RMK A01 T01990109  RH  056%=      5-min Rain = 0
KBI1 190241Z 05009KT 20/11 A3002 RMK A01 T01980109  RH  056%=      5-min Rain = 0
KBI1 190242Z 05009KT 20/11 A3002 RMK A01 T01980109  RH  056%=      5-min Rain = 0
KBI1 190243Z 05010KT 20/11 A3002 RMK A01 T01980109  RH  056%=      5-min Rain = 0
KBI1 190244Z 05009KT 20/11 A3002 RMK A01 T01970108  RH  056%=      5-min Rain = 0
KBI1 190245Z 05009KT 20/11 A3002 RMK A01 T01970108  RH  057%=      5-min Rain = 0
KBI1 190246Z 05009KT 20/11 A3002 RMK A01 T01960108  RH  057%=      5-min Rain = 0
KBI1 190247Z 05008KT 20/11 A3002 RMK A01 T01960108  RH  057%=      5-min Rain = 0
KBI1 190248Z 05009KT 20/11 A3002 RMK A01 T01950108  RH  057%=      5-min Rain = 0
KBI1 190249Z 05007KT 19/11 A3002 RMK A01 T01940108  RH  057%=      5-min Rain = 0
KBI1 190250Z 04009KT 19/11 A3002 RMK A01 T01940107  RH  057%=      5-min Rain = 0
KBI1 190251Z 05008KT 19/11 A3002 RMK A01 T01930107  RH  057%=      5-min Rain = 0
KBI1 190252Z 05007KT 19/11 A3002 RMK A01 T01930107  RH  058%=      5-min Rain = 0
KBI1 190253Z 05009KT 19/11 A3002 RMK A01 T01920106  RH  058%=      5-min Rain = 0
KBI1 190254Z 05008KT 19/11 A3002 RMK A01 T01910106  RH  058%=      5-min Rain = 0
KBI1 190255Z 05009KT 19/11 A3002 RMK A01 T01910106  RH  058%=      5-min Rain = 0
KBI1 190256Z 05009KT 19/11 A3002 RMK A01 T01900106  RH  058%=      5-min Rain = 0
KBI1 190257Z 05007KT 19/11 A3002 RMK A01 T01900106  RH  058%=      5-min Rain = 0
KBI1 190258Z 05008KT 19/11 A3002 RMK A01 T01890105  RH  058%=      5-min Rain = 0
KBI1 190259Z 05008KT 19/11 A3003 RMK A01 T01890105  RH  058%=      5-min Rain = 0
KBI1 190300Z 05009KT 19/11 A3003 RMK A01 T01890105  RH  058%=      5-min Rain = 0
KBI1 190301Z 05009KT 19/11 A3003 RMK A01 T01880105  RH  058%=      5-min Rain = 0
KBI1 190302Z 05009KT 19/10 A3003 RMK A01 T01870104  RH  058%=      5-min Rain = 0
KBI1 190303Z 05008KT 19/11 A3003 RMK A01 T01870105  RH  059%=      5-min Rain = 0
KBI1 190304Z 05007KT 19/10 A3003 RMK A01 T01870104  RH  059%=      5-min Rain = 0
KBI1 190305Z 06008KT 19/10 A3003 RMK A01 T01860104  RH  059%=      5-min Rain = 0
KBI1 190306Z 06007KT 19/10 A3003 RMK A01 T01860104  RH  059%=      5-min Rain = 0
KBI1 190307Z 05007KT 19/10 A3003 RMK A01 T01860104  RH  059%=      5-min Rain = 0
KBI1 190308Z 05008KT 19/10 A3003 RMK A01 T01850104  RH  059%=      5-min Rain = 0
KBI1 190309Z 05008KT 19/10 A3003 RMK A01 T01850104  RH  059%=      5-min Rain = 0
KBI1 190310Z 06007KT 19/10 A3003 RMK A01 T01850104  RH  059%=      5-min Rain = 0
KBI1 190311Z 06007KT 19/10 A3003 RMK A01 T01850104  RH  059%=      5-min Rain = 0
KBI1 190312Z 05006KT 18/10 A3003 RMK A01 T01840104  RH  059%=      5-min Rain = 0
KBI1 190313Z 06007KT 18/10 A3003 RMK A01 T01840104  RH  059%=      5-min Rain = 0
KBI1 190314Z 06007KT 18/10 A3003 RMK A01 T01840104  RH  059%=      5-min Rain = 0
KBI1 190315Z 05007KT 18/10 A3004 RMK A01 T01830104  RH  060%=      5-min Rain = 0
KBI1 190316Z 06007KT 18/10 A3003 RMK A01 T01840104  RH  060%=      5-min Rain = 0
KBI1 190317Z 05007KT 18/10 A3003 RMK A01 T01830104  RH  060%=      5-min Rain = 0
KBI1 190318Z 05007KT 18/10 A3003 RMK A01 T01830104  RH  060%=      5-min Rain = 0
KBI1 190319Z 05007KT 18/10 A3004 RMK A01 T01830104  RH  060%=      5-min Rain = 0
KBI1 190320Z 05007KT 18/10 A3003 RMK A01 T01830103  RH  060%=      5-min Rain = 0
KBI1 190321Z 05006KT 18/10 A3004 RMK A01 T01830104  RH  060%=      5-min Rain = 0
KBI1 190322Z 05006KT 18/10 A3004 RMK A01 T01820104  RH  060%=      5-min Rain = 0
KBI1 190323Z 05007KT 18/10 A3004 RMK A01 T01820103  RH  060%=      5-min Rain = 0
KBI1 190324Z 05007KT 18/10 A3004 RMK A01 T01820104  RH  060%=      5-min Rain = 0
KBI1 190325Z 05007KT 18/10 A3004 RMK A01 T01810103  RH  060%=      5-min Rain = 0
KBI1 190326Z 05006KT 18/10 A3004 RMK A01 T01810103  RH  060%=      5-min Rain = 0
KBI1 190327Z 06006KT 18/10 A3004 RMK A01 T01800103  RH  060%=      5-min Rain = 0
KBI1 190328Z 05006KT 18/10 A3004 RMK A01 T01800103  RH  061%=      5-min Rain = 0
KBI1 190329Z 05007KT 18/10 A3004 RMK A01 T01800103  RH  061%=      5-min Rain = 0
KBI1 190330Z 04006KT 18/10 A3004 RMK A01 T01800103  RH  061%=      5-min Rain = 0
KBI1 190331Z 04005KT 18/10 A3004 RMK A01 T01790103  RH  061%=      5-min Rain = 0
KBI1 190332Z 05005KT 18/10 A3004 RMK A01 T01790103  RH  061%=      5-min Rain = 0
KBI1 190333Z 04006KT 18/10 A3004 RMK A01 T01790103  RH  061%=      5-min Rain = 0
KBI1 190334Z 04005KT 18/10 A3004 RMK A01 T01780103  RH  061%=      5-min Rain = 0
KBI1 190335Z 03005KT 18/10 A3004 RMK A01 T01780102  RH  061%=      5-min Rain = 0
KBI1 190336Z 04006KT 18/10 A3004 RMK A01 T01770102  RH  061%=      5-min Rain = 0
KBI1 190337Z 04005KT 18/10 A3004 RMK A01 T01760101  RH  061%=      5-min Rain = 0
KBI1 190338Z 04005KT 18/10 A3004 RMK A01 T01750101  RH  062%=      5-min Rain = 0
KBI1 190339Z 04006KT 17/10 A3004 RMK A01 T01740101  RH  062%=      5-min Rain = 0
KBI1 190340Z 04006KT 17/10 A3004 RMK A01 T01740101  RH  062%=      5-min Rain = 0
KBI1 190341Z 04005KT 17/10 A3004 RMK A01 T01740101  RH  062%=      5-min Rain = 0
KBI1 190342Z 04006KT 17/10 A3004 RMK A01 T01730100  RH  062%=      5-min Rain = 0
KBI1 190343Z 04006KT 17/10 A3004 RMK A01 T01730100  RH  062%=      5-min Rain = 0
KBI1 190344Z 04007KT 17/10 A3004 RMK A01 T01720100  RH  062%=      5-min Rain = 0
KBI1 190345Z 04006KT 17/10 A3004 RMK A01 T01720100  RH  062%=      5-min Rain = 0
KBI1 190346Z 05006KT 17/10 A3004 RMK A01 T01720100  RH  062%=      5-min Rain = 0
KBI1 190347Z 04006KT 17/10 A3004 RMK A01 T01720100  RH  063%=      5-min Rain = 0
KBI1 190348Z 05005KT 17/10 A3004 RMK A01 T01720100  RH  063%=      5-min Rain = 0
KBI1 190349Z 05005KT 17/10 A3004 RMK A01 T01710100  RH  063%=      5-min Rain = 0
KBI1 190350Z 06006KT 17/10 A3004 RMK A01 T01700099  RH  063%=      5-min Rain = 0
KBI1 190351Z 05006KT 17/10 A3004 RMK A01 T01700100  RH  063%=      5-min Rain = 0
KBI1 190352Z 05006KT 17/10 A3004 RMK A01 T01710100  RH  063%=      5-min Rain = 0
KBI1 190353Z 05007KT 17/10 A3004 RMK A01 T01700100  RH  063%=      5-min Rain = 0
KBI1 190354Z 05007KT 17/10 A3004 RMK A01 T01700100  RH  063%=      5-min Rain = 0
KBI1 190355Z 05008KT 17/10 A3004 RMK A01 T01700099  RH  063%=      5-min Rain = 0
KBI1 190356Z 05007KT 17/10 A3004 RMK A01 T01700100  RH  063%=      5-min Rain = 0
KBI1 190357Z 05007KT 17/10 A3004 RMK A01 T01690099  RH  063%=      5-min Rain = 0
KBI1 190358Z 05007KT 17/10 A3004 RMK A01 T01690099  RH  063%=      5-min Rain = 0
KBI1 190359Z 05007KT 17/10 A3004 RMK A01 T01690099  RH  063%=      5-min Rain = 0
KBI1 190400Z 05008KT 17/10 A3004 RMK A01 T01690099  RH  063%=      5-min Rain = 0
KBI1 190401Z 05008KT 17/10 A3004 RMK A01 T01690099  RH  064%=      5-min Rain = 0
KBI1 190402Z 05006KT 17/10 A3004 RMK A01 T01690099  RH  064%=      5-min Rain = 0
KBI1 190403Z 05006KT 17/10 A3004 RMK A01 T01680099  RH  064%=      5-min Rain = 0
KBI1 190404Z 04006KT 17/10 A3005 RMK A01 T01680099  RH  064%=      5-min Rain = 0
KBI1 190405Z 03005KT 17/10 A3005 RMK A01 T01680099  RH  064%=      5-min Rain = 0
KBI1 190406Z 03005KT 17/10 A3005 RMK A01 T01680099  RH  064%=      5-min Rain = 0
KBI1 190407Z 03006KT 17/10 A3005 RMK A01 T01670098  RH  064%=      5-min Rain = 0
KBI1 190408Z 03006KT 17/10 A3005 RMK A01 T01660098  RH  064%=      5-min Rain = 0
KBI1 190409Z 04004KT 17/10 A3005 RMK A01 T01660098  RH  064%=      5-min Rain = 0
KBI1 190410Z 03005KT 17/10 A3005 RMK A01 T01650098  RH  064%=      5-min Rain = 0
KBI1 190411Z 04008KT 17/10 A3005 RMK A01 T01650098  RH  065%=      5-min Rain = 0
KBI1 190412Z 04006KT 17/10 A3005 RMK A01 T01650098  RH  065%=      5-min Rain = 0
KBI1 190413Z 04006KT 17/10 A3005 RMK A01 T01650098  RH  065%=      5-min Rain = 0
KBI1 190414Z 04006KT 16/10 A3005 RMK A01 T01640097  RH  065%=      5-min Rain = 0
KBI1 190415Z 04004KT 16/10 A3005 RMK A01 T01640098  RH  065%=      5-min Rain = 0
KBI1 190416Z 05005KT 16/10 A3005 RMK A01 T01640097  RH  065%=      5-min Rain = 0
KBI1 190417Z 05006KT 16/10 A3005 RMK A01 T01640098  RH  065%=      5-min Rain = 0
KBI1 190418Z 04006KT 16/10 A3005 RMK A01 T01630097  RH  065%=      5-min Rain = 0
KBI1 190419Z 05007KT 16/10 A3005 RMK A01 T01630097  RH  065%=      5-min Rain = 0
KBI1 190420Z 05006KT 16/10 A3005 RMK A01 T01630097  RH  065%=      5-min Rain = 0
KBI1 190421Z 04006KT 16/10 A3005 RMK A01 T01630097  RH  065%=      5-min Rain = 0
KBI1 190422Z 04006KT 16/10 A3005 RMK A01 T01630096  RH  065%=      5-min Rain = 0
KBI1 190423Z 04007KT 16/10 A3005 RMK A01 T01620096  RH  065%=      5-min Rain = 0
KBI1 190424Z 04007KT 16/10 A3005 RMK A01 T01620096  RH  065%=      5-min Rain = 0
KBI1 190425Z 05006KT 16/10 A3005 RMK A01 T01620096  RH  065%=      5-min Rain = 0
KBI1 190426Z 05006KT 16/10 A3005 RMK A01 T01610096  RH  065%=      5-min Rain = 0
KBI1 190427Z 05006KT 16/10 A3005 RMK A01 T01610096  RH  065%=      5-min Rain = 0
KBI1 190428Z 05007KT 16/10 A3005 RMK A01 T01610096  RH  065%=      5-min Rain = 0
KBI1 190429Z 05007KT 16/10 A3005 RMK A01 T01610096  RH  065%=      5-min Rain = 0
KBI1 190430Z 05007KT 16/10 A3005 RMK A01 T01600095  RH  065%=      5-min Rain = 0
KBI1 190431Z 05006KT 16/10 A3005 RMK A01 T01610096  RH  065%=      5-min Rain = 0
KBI1 190432Z 05006KT 16/10 A3005 RMK A01 T01600096  RH  065%=      5-min Rain = 0
KBI1 190433Z 05006KT 16/10 A3005 RMK A01 T01600095  RH  065%=      5-min Rain = 0
KBI1 190434Z 04006KT 16/10 A3005 RMK A01 T01600095  RH  065%=      5-min Rain = 0
KBI1 190435Z 04006KT 16/10 A3005 RMK A01 T01590095  RH  066%=      5-min Rain = 0
KBI1 190436Z 04006KT 16/10 A3005 RMK A01 T01590095  RH  066%=      5-min Rain = 0
KBI1 190437Z 05007KT 16/10 A3005 RMK A01 T01590095  RH  066%=      5-min Rain = 0
KBI1 190438Z 05006KT 16/09 A3005 RMK A01 T01580094  RH  066%=      5-min Rain = 0
KBI1 190439Z 05005KT 16/09 A3005 RMK A01 T01580094  RH  066%=      5-min Rain = 0
KBI1 190440Z 04005KT 16/09 A3005 RMK A01 T01580094  RH  066%=      5-min Rain = 0
KBI1 190441Z 05007KT 16/09 A3005 RMK A01 T01570094  RH  066%=      5-min Rain = 0
KBI1 190442Z 06005KT 16/09 A3005 RMK A01 T01570094  RH  066%=      5-min Rain = 0
KBI1 190443Z 05006KT 16/09 A3005 RMK A01 T01570094  RH  066%=      5-min Rain = 0
KBI1 190444Z 06006KT 16/10 A3005 RMK A01 T01570095  RH  066%=      5-min Rain = 0
KBI1 190445Z 05005KT 16/09 A3005 RMK A01 T01570094  RH  066%=      5-min Rain = 0
KBI1 190446Z 05006KT 16/09 A3005 RMK A01 T01570094  RH  066%=      5-min Rain = 0
KBI1 190447Z 06005KT 16/09 A3005 RMK A01 T01560094  RH  066%=      5-min Rain = 0
KBI1 190448Z 04004KT 16/09 A3005 RMK A01 T01560094  RH  066%=      5-min Rain = 0
KBI1 190449Z 05005KT 16/09 A3005 RMK A01 T01560094  RH  067%=      5-min Rain = 0
KBI1 190450Z 05005KT 16/09 A3005 RMK A01 T01560094  RH  067%=      5-min Rain = 0
KBI1 190451Z 05005KT 16/09 A3005 RMK A01 T01560094  RH  067%=      5-min Rain = 0
KBI1 190452Z 05005KT 16/09 A3005 RMK A01 T01560094  RH  067%=      5-min Rain = 0
KBI1 190453Z 05005KT 16/09 A3005 RMK A01 T01550094  RH  067%=      5-min Rain = 0
KBI1 190454Z 05006KT 16/09 A3005 RMK A01 T01550094  RH  067%=      5-min Rain = 0
KBI1 190455Z 05007KT 16/09 A3005 RMK A01 T01550094  RH  067%=      5-min Rain = 0
KBI1 190456Z 05007KT 16/09 A3005 RMK A01 T01550094  RH  067%=      5-min Rain = 0
KBI1 190457Z 05006KT 16/09 A3005 RMK A01 T01550094  RH  067%=      5-min Rain = 0
KBI1 190458Z 06006KT 16/09 A3005 RMK A01 T01550094  RH  067%=      5-min Rain = 0
KBI1 190459Z 06006KT 15/09 A3005 RMK A01 T01540094  RH  067%=      5-min Rain = 0

Page generated in 0.0812 seconds.